<?xml version="1.0" encoding="UTF-8" standalone="no" ?>
<gpx xmlns="http://www.topografix.com/GPX/1/1" xmlns:xsi="http://www.w3.org/2001/XMLSchema-instance" xsi:schemaLocation="http://www.topografix.com/GPX/1/1 http://www.topografix.com/GPX/1/1/gpx.xsd" version="1.1" creator="VisuGPX - https://www.visugpx.com">
  <metadata>
    <name>Rando 1/2 journée : Dole Rue Berthollet &lt;-&gt; Mont Roland: 12 km</name>
    <desc><![CDATA[Rando effectuée le 9 mars 2016]]></desc>
  </metadata>
  <trk>
    <name><![CDATA[9 mars 2016 08:53:19]]></name>
    <cmt><![CDATA[9 mars 2016 08:53:19]]></cmt>
    <trkseg>
      <trkpt lat="47.11322" lon="5.49886">
        <ele>263</ele>
        <time>2016-03-09T07:53:25Z</time>
      </trkpt>
      <trkpt lat="47.1137" lon="5.49885">
        <ele>248</ele>
        <time>2016-03-09T07:53:56Z</time>
      </trkpt>
      <trkpt lat="47.1138" lon="5.49883">
        <ele>247</ele>
        <time>2016-03-09T07:54:03Z</time>
      </trkpt>
      <trkpt lat="47.11389" lon="5.49878">
        <ele>245</ele>
        <time>2016-03-09T07:54:12Z</time>
      </trkpt>
      <trkpt lat="47.11394" lon="5.49875">
        <ele>245</ele>
        <time>2016-03-09T07:54:17Z</time>
      </trkpt>
      <trkpt lat="47.11403" lon="5.49868">
        <ele>245</ele>
        <time>2016-03-09T07:54:26Z</time>
      </trkpt>
      <trkpt lat="47.11407" lon="5.49865">
        <ele>244</ele>
        <time>2016-03-09T07:54:31Z</time>
      </trkpt>
      <trkpt lat="47.11415" lon="5.49855">
        <ele>245</ele>
        <time>2016-03-09T07:54:41Z</time>
      </trkpt>
      <trkpt lat="47.11419" lon="5.4985">
        <ele>245</ele>
        <time>2016-03-09T07:54:46Z</time>
      </trkpt>
      <trkpt lat="47.11422" lon="5.49845">
        <ele>244</ele>
        <time>2016-03-09T07:54:50Z</time>
      </trkpt>
      <trkpt lat="47.11426" lon="5.49831">
        <ele>243</ele>
        <time>2016-03-09T07:54:58Z</time>
      </trkpt>
      <trkpt lat="47.11428" lon="5.49824">
        <ele>243</ele>
        <time>2016-03-09T07:55:01Z</time>
      </trkpt>
      <trkpt lat="47.1143" lon="5.49809">
        <ele>243</ele>
        <time>2016-03-09T07:55:09Z</time>
      </trkpt>
      <trkpt lat="47.11436" lon="5.49799">
        <ele>243</ele>
        <time>2016-03-09T07:55:17Z</time>
      </trkpt>
      <trkpt lat="47.11438" lon="5.49793">
        <ele>243</ele>
        <time>2016-03-09T07:55:21Z</time>
      </trkpt>
      <trkpt lat="47.1146" lon="5.49741">
        <ele>246</ele>
        <time>2016-03-09T07:55:53Z</time>
      </trkpt>
      <trkpt lat="47.11465" lon="5.49729">
        <ele>247</ele>
        <time>2016-03-09T07:55:59Z</time>
      </trkpt>
      <trkpt lat="47.11467" lon="5.49723">
        <ele>246</ele>
        <time>2016-03-09T07:56:03Z</time>
      </trkpt>
      <trkpt lat="47.1147" lon="5.49716">
        <ele>246</ele>
        <time>2016-03-09T07:56:07Z</time>
      </trkpt>
      <trkpt lat="47.11475" lon="5.49702">
        <ele>248</ele>
        <time>2016-03-09T07:56:15Z</time>
      </trkpt>
      <trkpt lat="47.11479" lon="5.49689">
        <ele>248</ele>
        <time>2016-03-09T07:56:23Z</time>
      </trkpt>
      <trkpt lat="47.1148" lon="5.49673">
        <ele>249</ele>
        <time>2016-03-09T07:56:31Z</time>
      </trkpt>
      <trkpt lat="47.11479" lon="5.49666">
        <ele>249</ele>
        <time>2016-03-09T07:56:35Z</time>
      </trkpt>
      <trkpt lat="47.11465" lon="5.49641">
        <ele>247</ele>
        <time>2016-03-09T07:56:50Z</time>
      </trkpt>
      <trkpt lat="47.11457" lon="5.49635">
        <ele>247</ele>
        <time>2016-03-09T07:56:58Z</time>
      </trkpt>
      <trkpt lat="47.11425" lon="5.49599">
        <ele>250</ele>
        <time>2016-03-09T07:57:30Z</time>
      </trkpt>
      <trkpt lat="47.11422" lon="5.49585">
        <ele>250</ele>
        <time>2016-03-09T07:57:38Z</time>
      </trkpt>
      <trkpt lat="47.1142" lon="5.49572">
        <ele>249</ele>
        <time>2016-03-09T07:57:46Z</time>
      </trkpt>
      <trkpt lat="47.11417" lon="5.49558">
        <ele>249</ele>
        <time>2016-03-09T07:57:54Z</time>
      </trkpt>
      <trkpt lat="47.11412" lon="5.49546">
        <ele>250</ele>
        <time>2016-03-09T07:58:01Z</time>
      </trkpt>
      <trkpt lat="47.11408" lon="5.49533">
        <ele>249</ele>
        <time>2016-03-09T07:58:09Z</time>
      </trkpt>
      <trkpt lat="47.11399" lon="5.4951">
        <ele>251</ele>
        <time>2016-03-09T07:58:26Z</time>
      </trkpt>
      <trkpt lat="47.11392" lon="5.49501">
        <ele>251</ele>
        <time>2016-03-09T07:58:35Z</time>
      </trkpt>
      <trkpt lat="47.11387" lon="5.49496">
        <ele>252</ele>
        <time>2016-03-09T07:58:48Z</time>
      </trkpt>
      <trkpt lat="47.11386" lon="5.49491">
        <ele>253</ele>
        <time>2016-03-09T07:59:27Z</time>
      </trkpt>
      <trkpt lat="47.11386" lon="5.49484">
        <ele>254</ele>
        <time>2016-03-09T07:59:34Z</time>
      </trkpt>
      <trkpt lat="47.11388" lon="5.4946">
        <ele>257</ele>
        <time>2016-03-09T07:59:48Z</time>
      </trkpt>
      <trkpt lat="47.11389" lon="5.49446">
        <ele>257</ele>
        <time>2016-03-09T07:59:56Z</time>
      </trkpt>
      <trkpt lat="47.1139" lon="5.49431">
        <ele>257</ele>
        <time>2016-03-09T08:00:05Z</time>
      </trkpt>
      <trkpt lat="47.11395" lon="5.49371">
        <ele>259</ele>
        <time>2016-03-09T08:00:38Z</time>
      </trkpt>
      <trkpt lat="47.11398" lon="5.49328">
        <ele>258</ele>
        <time>2016-03-09T08:01:04Z</time>
      </trkpt>
      <trkpt lat="47.11401" lon="5.49322">
        <ele>258</ele>
        <time>2016-03-09T08:01:09Z</time>
      </trkpt>
      <trkpt lat="47.11406" lon="5.4932">
        <ele>259</ele>
        <time>2016-03-09T08:01:13Z</time>
      </trkpt>
      <trkpt lat="47.11422" lon="5.49325">
        <ele>258</ele>
        <time>2016-03-09T08:01:27Z</time>
      </trkpt>
      <trkpt lat="47.11426" lon="5.49327">
        <ele>258</ele>
        <time>2016-03-09T08:01:32Z</time>
      </trkpt>
      <trkpt lat="47.11431" lon="5.4933">
        <ele>258</ele>
        <time>2016-03-09T08:01:37Z</time>
      </trkpt>
      <trkpt lat="47.11468" lon="5.4934">
        <ele>252</ele>
        <time>2016-03-09T08:02:09Z</time>
      </trkpt>
      <trkpt lat="47.11504" lon="5.49349">
        <ele>251</ele>
        <time>2016-03-09T08:02:39Z</time>
      </trkpt>
      <trkpt lat="47.11512" lon="5.49356">
        <ele>250</ele>
        <time>2016-03-09T08:02:47Z</time>
      </trkpt>
      <trkpt lat="47.11517" lon="5.4936">
        <ele>249</ele>
        <time>2016-03-09T08:02:51Z</time>
      </trkpt>
      <trkpt lat="47.11522" lon="5.49364">
        <ele>248</ele>
        <time>2016-03-09T08:02:56Z</time>
      </trkpt>
      <trkpt lat="47.11526" lon="5.49367">
        <ele>248</ele>
        <time>2016-03-09T08:03:00Z</time>
      </trkpt>
      <trkpt lat="47.11535" lon="5.49374">
        <ele>249</ele>
        <time>2016-03-09T08:03:09Z</time>
      </trkpt>
      <trkpt lat="47.11539" lon="5.49377">
        <ele>249</ele>
        <time>2016-03-09T08:03:12Z</time>
      </trkpt>
      <trkpt lat="47.11547" lon="5.49384">
        <ele>249</ele>
        <time>2016-03-09T08:03:21Z</time>
      </trkpt>
      <trkpt lat="47.11561" lon="5.49395">
        <ele>248</ele>
        <time>2016-03-09T08:03:33Z</time>
      </trkpt>
      <trkpt lat="47.11566" lon="5.49398">
        <ele>249</ele>
        <time>2016-03-09T08:03:37Z</time>
      </trkpt>
      <trkpt lat="47.11595" lon="5.49416">
        <ele>248</ele>
        <time>2016-03-09T08:04:00Z</time>
      </trkpt>
      <trkpt lat="47.11605" lon="5.49422">
        <ele>247</ele>
        <time>2016-03-09T08:04:08Z</time>
      </trkpt>
      <trkpt lat="47.11648" lon="5.49429">
        <ele>245</ele>
        <time>2016-03-09T08:04:41Z</time>
      </trkpt>
      <trkpt lat="47.11691" lon="5.49434">
        <ele>244</ele>
        <time>2016-03-09T08:05:11Z</time>
      </trkpt>
      <trkpt lat="47.11696" lon="5.49435">
        <ele>244</ele>
        <time>2016-03-09T08:05:14Z</time>
      </trkpt>
      <trkpt lat="47.11706" lon="5.49437">
        <ele>244</ele>
        <time>2016-03-09T08:05:20Z</time>
      </trkpt>
      <trkpt lat="47.11754" lon="5.49449">
        <ele>245</ele>
        <time>2016-03-09T08:05:52Z</time>
      </trkpt>
      <trkpt lat="47.11759" lon="5.49451">
        <ele>246</ele>
        <time>2016-03-09T08:05:56Z</time>
      </trkpt>
      <trkpt lat="47.1179" lon="5.49465">
        <ele>247</ele>
        <time>2016-03-09T08:06:19Z</time>
      </trkpt>
      <trkpt lat="47.11801" lon="5.49469">
        <ele>246</ele>
        <time>2016-03-09T08:06:27Z</time>
      </trkpt>
      <trkpt lat="47.11806" lon="5.49471">
        <ele>246</ele>
        <time>2016-03-09T08:06:31Z</time>
      </trkpt>
      <trkpt lat="47.11811" lon="5.49471">
        <ele>246</ele>
        <time>2016-03-09T08:06:35Z</time>
      </trkpt>
      <trkpt lat="47.11821" lon="5.49469">
        <ele>246</ele>
        <time>2016-03-09T08:06:45Z</time>
      </trkpt>
      <trkpt lat="47.11831" lon="5.49468">
        <ele>245</ele>
        <time>2016-03-09T08:06:52Z</time>
      </trkpt>
      <trkpt lat="47.11836" lon="5.49467">
        <ele>245</ele>
        <time>2016-03-09T08:06:56Z</time>
      </trkpt>
      <trkpt lat="47.11854" lon="5.49473">
        <ele>245</ele>
        <time>2016-03-09T08:07:10Z</time>
      </trkpt>
      <trkpt lat="47.11861" lon="5.49482">
        <ele>245</ele>
        <time>2016-03-09T08:07:19Z</time>
      </trkpt>
      <trkpt lat="47.11866" lon="5.49497">
        <ele>244</ele>
        <time>2016-03-09T08:07:32Z</time>
      </trkpt>
      <trkpt lat="47.1187" lon="5.4951">
        <ele>244</ele>
        <time>2016-03-09T08:07:38Z</time>
      </trkpt>
      <trkpt lat="47.11874" lon="5.49532">
        <ele>242</ele>
        <time>2016-03-09T08:07:49Z</time>
      </trkpt>
      <trkpt lat="47.1188" lon="5.49543">
        <ele>241</ele>
        <time>2016-03-09T08:07:57Z</time>
      </trkpt>
      <trkpt lat="47.11891" lon="5.49547">
        <ele>241</ele>
        <time>2016-03-09T08:08:07Z</time>
      </trkpt>
      <trkpt lat="47.11921" lon="5.49554">
        <ele>242</ele>
        <time>2016-03-09T08:08:31Z</time>
      </trkpt>
      <trkpt lat="47.11926" lon="5.49555">
        <ele>242</ele>
        <time>2016-03-09T08:08:35Z</time>
      </trkpt>
      <trkpt lat="47.11931" lon="5.49557">
        <ele>242</ele>
        <time>2016-03-09T08:08:39Z</time>
      </trkpt>
      <trkpt lat="47.11936" lon="5.49558">
        <ele>242</ele>
        <time>2016-03-09T08:08:44Z</time>
      </trkpt>
      <trkpt lat="47.11941" lon="5.49559">
        <ele>242</ele>
        <time>2016-03-09T08:08:48Z</time>
      </trkpt>
      <trkpt lat="47.11946" lon="5.49561">
        <ele>243</ele>
        <time>2016-03-09T08:08:52Z</time>
      </trkpt>
      <trkpt lat="47.11951" lon="5.49562">
        <ele>242</ele>
        <time>2016-03-09T08:08:56Z</time>
      </trkpt>
      <trkpt lat="47.11968" lon="5.49569">
        <ele>243</ele>
        <time>2016-03-09T08:09:08Z</time>
      </trkpt>
      <trkpt lat="47.12003" lon="5.49583">
        <ele>246</ele>
        <time>2016-03-09T08:09:40Z</time>
      </trkpt>
      <trkpt lat="47.12017" lon="5.49592">
        <ele>246</ele>
        <time>2016-03-09T08:09:53Z</time>
      </trkpt>
      <trkpt lat="47.12022" lon="5.49595">
        <ele>246</ele>
        <time>2016-03-09T08:09:57Z</time>
      </trkpt>
      <trkpt lat="47.12026" lon="5.49598">
        <ele>246</ele>
        <time>2016-03-09T08:10:01Z</time>
      </trkpt>
      <trkpt lat="47.12039" lon="5.49609">
        <ele>245</ele>
        <time>2016-03-09T08:10:14Z</time>
      </trkpt>
      <trkpt lat="47.12059" lon="5.49632">
        <ele>246</ele>
        <time>2016-03-09T08:10:34Z</time>
      </trkpt>
      <trkpt lat="47.12063" lon="5.49637">
        <ele>245</ele>
        <time>2016-03-09T08:10:38Z</time>
      </trkpt>
      <trkpt lat="47.12081" lon="5.49655">
        <ele>245</ele>
        <time>2016-03-09T08:10:54Z</time>
      </trkpt>
      <trkpt lat="47.12101" lon="5.49677">
        <ele>246</ele>
        <time>2016-03-09T08:11:14Z</time>
      </trkpt>
      <trkpt lat="47.12134" lon="5.49708">
        <ele>246</ele>
        <time>2016-03-09T08:11:46Z</time>
      </trkpt>
      <trkpt lat="47.12155" lon="5.49729">
        <ele>246</ele>
        <time>2016-03-09T08:12:06Z</time>
      </trkpt>
      <trkpt lat="47.1216" lon="5.49734">
        <ele>245</ele>
        <time>2016-03-09T08:12:10Z</time>
      </trkpt>
      <trkpt lat="47.12182" lon="5.49753">
        <ele>246</ele>
        <time>2016-03-09T08:12:30Z</time>
      </trkpt>
      <trkpt lat="47.12218" lon="5.49784">
        <ele>248</ele>
        <time>2016-03-09T08:13:01Z</time>
      </trkpt>
      <trkpt lat="47.12223" lon="5.49787">
        <ele>248</ele>
        <time>2016-03-09T08:13:05Z</time>
      </trkpt>
      <trkpt lat="47.12233" lon="5.49791">
        <ele>248</ele>
        <time>2016-03-09T08:13:13Z</time>
      </trkpt>
      <trkpt lat="47.12239" lon="5.49793">
        <ele>248</ele>
        <time>2016-03-09T08:13:18Z</time>
      </trkpt>
      <trkpt lat="47.12244" lon="5.49794">
        <ele>248</ele>
        <time>2016-03-09T08:13:22Z</time>
      </trkpt>
      <trkpt lat="47.12254" lon="5.49798">
        <ele>248</ele>
        <time>2016-03-09T08:13:29Z</time>
      </trkpt>
      <trkpt lat="47.12298" lon="5.49808">
        <ele>248</ele>
        <time>2016-03-09T08:14:00Z</time>
      </trkpt>
      <trkpt lat="47.12318" lon="5.49811">
        <ele>249</ele>
        <time>2016-03-09T08:14:14Z</time>
      </trkpt>
      <trkpt lat="47.12361" lon="5.49824">
        <ele>254</ele>
        <time>2016-03-09T08:14:45Z</time>
      </trkpt>
      <trkpt lat="47.12407" lon="5.49825">
        <ele>257</ele>
        <time>2016-03-09T08:15:16Z</time>
      </trkpt>
      <trkpt lat="47.12412" lon="5.49823">
        <ele>257</ele>
        <time>2016-03-09T08:15:20Z</time>
      </trkpt>
      <trkpt lat="47.12433" lon="5.49815">
        <ele>255</ele>
        <time>2016-03-09T08:15:35Z</time>
      </trkpt>
      <trkpt lat="47.12448" lon="5.49811">
        <ele>255</ele>
        <time>2016-03-09T08:15:46Z</time>
      </trkpt>
      <trkpt lat="47.12453" lon="5.49812">
        <ele>255</ele>
        <time>2016-03-09T08:15:50Z</time>
      </trkpt>
      <trkpt lat="47.12463" lon="5.49816">
        <ele>254</ele>
        <time>2016-03-09T08:16:00Z</time>
      </trkpt>
      <trkpt lat="47.12467" lon="5.49817">
        <ele>255</ele>
        <time>2016-03-09T08:16:04Z</time>
      </trkpt>
      <trkpt lat="47.12478" lon="5.4982">
        <ele>254</ele>
        <time>2016-03-09T08:16:11Z</time>
      </trkpt>
      <trkpt lat="47.12516" lon="5.49842">
        <ele>252</ele>
        <time>2016-03-09T08:16:40Z</time>
      </trkpt>
      <trkpt lat="47.12549" lon="5.4988">
        <ele>254</ele>
        <time>2016-03-09T08:17:11Z</time>
      </trkpt>
      <trkpt lat="47.12554" lon="5.49884">
        <ele>255</ele>
        <time>2016-03-09T08:17:15Z</time>
      </trkpt>
      <trkpt lat="47.12558" lon="5.49887">
        <ele>255</ele>
        <time>2016-03-09T08:17:18Z</time>
      </trkpt>
      <trkpt lat="47.1258" lon="5.49907">
        <ele>251</ele>
        <time>2016-03-09T08:17:39Z</time>
      </trkpt>
      <trkpt lat="47.12593" lon="5.49917">
        <ele>251</ele>
        <time>2016-03-09T08:17:51Z</time>
      </trkpt>
      <trkpt lat="47.12598" lon="5.49915">
        <ele>251</ele>
        <time>2016-03-09T08:17:57Z</time>
      </trkpt>
      <trkpt lat="47.12603" lon="5.49911">
        <ele>251</ele>
        <time>2016-03-09T08:18:02Z</time>
      </trkpt>
      <trkpt lat="47.12607" lon="5.49907">
        <ele>251</ele>
        <time>2016-03-09T08:18:07Z</time>
      </trkpt>
      <trkpt lat="47.12611" lon="5.49902">
        <ele>252</ele>
        <time>2016-03-09T08:18:11Z</time>
      </trkpt>
      <trkpt lat="47.12614" lon="5.49896">
        <ele>251</ele>
        <time>2016-03-09T08:18:15Z</time>
      </trkpt>
      <trkpt lat="47.12637" lon="5.49859">
        <ele>246</ele>
        <time>2016-03-09T08:18:47Z</time>
      </trkpt>
      <trkpt lat="47.1264" lon="5.49852">
        <ele>246</ele>
        <time>2016-03-09T08:18:51Z</time>
      </trkpt>
      <trkpt lat="47.12644" lon="5.49848">
        <ele>246</ele>
        <time>2016-03-09T08:18:55Z</time>
      </trkpt>
      <trkpt lat="47.12649" lon="5.49834">
        <ele>246</ele>
        <time>2016-03-09T08:19:04Z</time>
      </trkpt>
      <trkpt lat="47.12656" lon="5.49822">
        <ele>246</ele>
        <time>2016-03-09T08:19:14Z</time>
      </trkpt>
      <trkpt lat="47.1266" lon="5.49818">
        <ele>247</ele>
        <time>2016-03-09T08:19:18Z</time>
      </trkpt>
      <trkpt lat="47.12665" lon="5.49817">
        <ele>247</ele>
        <time>2016-03-09T08:19:23Z</time>
      </trkpt>
      <trkpt lat="47.12669" lon="5.49818">
        <ele>248</ele>
        <time>2016-03-09T08:19:30Z</time>
      </trkpt>
      <trkpt lat="47.12675" lon="5.49818">
        <ele>249</ele>
        <time>2016-03-09T08:19:34Z</time>
      </trkpt>
      <trkpt lat="47.12694" lon="5.4983">
        <ele>250</ele>
        <time>2016-03-09T08:19:51Z</time>
      </trkpt>
      <trkpt lat="47.12707" lon="5.4984">
        <ele>252</ele>
        <time>2016-03-09T08:20:03Z</time>
      </trkpt>
      <trkpt lat="47.1274" lon="5.49871">
        <ele>253</ele>
        <time>2016-03-09T08:20:35Z</time>
      </trkpt>
      <trkpt lat="47.12775" lon="5.49907">
        <ele>259</ele>
        <time>2016-03-09T08:21:09Z</time>
      </trkpt>
      <trkpt lat="47.12783" lon="5.49915">
        <ele>260</ele>
        <time>2016-03-09T08:21:17Z</time>
      </trkpt>
      <trkpt lat="47.12791" lon="5.49923">
        <ele>258</ele>
        <time>2016-03-09T08:21:27Z</time>
      </trkpt>
      <trkpt lat="47.12804" lon="5.49934">
        <ele>260</ele>
        <time>2016-03-09T08:21:42Z</time>
      </trkpt>
      <trkpt lat="47.12805" lon="5.49938">
        <ele>260</ele>
        <time>2016-03-09T08:21:50Z</time>
      </trkpt>
      <trkpt lat="47.1281" lon="5.49937">
        <ele>260</ele>
        <time>2016-03-09T08:22:02Z</time>
      </trkpt>
      <trkpt lat="47.12819" lon="5.49944">
        <ele>260</ele>
        <time>2016-03-09T08:22:12Z</time>
      </trkpt>
      <trkpt lat="47.12829" lon="5.49949">
        <ele>261</ele>
        <time>2016-03-09T08:22:20Z</time>
      </trkpt>
      <trkpt lat="47.12839" lon="5.49949">
        <ele>261</ele>
        <time>2016-03-09T08:22:28Z</time>
      </trkpt>
      <trkpt lat="47.12859" lon="5.49947">
        <ele>263</ele>
        <time>2016-03-09T08:22:49Z</time>
      </trkpt>
      <trkpt lat="47.12864" lon="5.49942">
        <ele>264</ele>
        <time>2016-03-09T08:23:00Z</time>
      </trkpt>
      <trkpt lat="47.12872" lon="5.49925">
        <ele>266</ele>
        <time>2016-03-09T08:23:13Z</time>
      </trkpt>
      <trkpt lat="47.12875" lon="5.49918">
        <ele>266</ele>
        <time>2016-03-09T08:23:18Z</time>
      </trkpt>
      <trkpt lat="47.12877" lon="5.49904">
        <ele>266</ele>
        <time>2016-03-09T08:23:29Z</time>
      </trkpt>
      <trkpt lat="47.1288" lon="5.49881">
        <ele>267</ele>
        <time>2016-03-09T08:23:47Z</time>
      </trkpt>
      <trkpt lat="47.12878" lon="5.49865">
        <ele>268</ele>
        <time>2016-03-09T08:23:57Z</time>
      </trkpt>
      <trkpt lat="47.12878" lon="5.49858">
        <ele>269</ele>
        <time>2016-03-09T08:24:02Z</time>
      </trkpt>
      <trkpt lat="47.12876" lon="5.49852">
        <ele>269</ele>
        <time>2016-03-09T08:24:06Z</time>
      </trkpt>
      <trkpt lat="47.12875" lon="5.49844">
        <ele>269</ele>
        <time>2016-03-09T08:24:11Z</time>
      </trkpt>
      <trkpt lat="47.12881" lon="5.49831">
        <ele>269</ele>
        <time>2016-03-09T08:24:20Z</time>
      </trkpt>
      <trkpt lat="47.12883" lon="5.49824">
        <ele>269</ele>
        <time>2016-03-09T08:24:25Z</time>
      </trkpt>
      <trkpt lat="47.12881" lon="5.49817">
        <ele>268</ele>
        <time>2016-03-09T08:24:30Z</time>
      </trkpt>
      <trkpt lat="47.12882" lon="5.49809">
        <ele>268</ele>
        <time>2016-03-09T08:24:35Z</time>
      </trkpt>
      <trkpt lat="47.12901" lon="5.49761">
        <ele>276</ele>
        <time>2016-03-09T08:25:09Z</time>
      </trkpt>
      <trkpt lat="47.12906" lon="5.49749">
        <ele>277</ele>
        <time>2016-03-09T08:25:17Z</time>
      </trkpt>
      <trkpt lat="47.12911" lon="5.49736">
        <ele>277</ele>
        <time>2016-03-09T08:25:26Z</time>
      </trkpt>
      <trkpt lat="47.12918" lon="5.49728">
        <ele>278</ele>
        <time>2016-03-09T08:25:34Z</time>
      </trkpt>
      <trkpt lat="47.12922" lon="5.49723">
        <ele>278</ele>
        <time>2016-03-09T08:25:38Z</time>
      </trkpt>
      <trkpt lat="47.12926" lon="5.49719">
        <ele>278</ele>
        <time>2016-03-09T08:25:44Z</time>
      </trkpt>
      <trkpt lat="47.1294" lon="5.49716">
        <ele>278</ele>
        <time>2016-03-09T08:25:57Z</time>
      </trkpt>
      <trkpt lat="47.12955" lon="5.49718">
        <ele>277</ele>
        <time>2016-03-09T08:26:11Z</time>
      </trkpt>
      <trkpt lat="47.12974" lon="5.49722">
        <ele>277</ele>
        <time>2016-03-09T08:26:29Z</time>
      </trkpt>
      <trkpt lat="47.12993" lon="5.49716">
        <ele>275</ele>
        <time>2016-03-09T08:26:44Z</time>
      </trkpt>
      <trkpt lat="47.13011" lon="5.49708">
        <ele>274</ele>
        <time>2016-03-09T08:27:02Z</time>
      </trkpt>
      <trkpt lat="47.1302" lon="5.49698">
        <ele>275</ele>
        <time>2016-03-09T08:27:10Z</time>
      </trkpt>
      <trkpt lat="47.13026" lon="5.49686">
        <ele>275</ele>
        <time>2016-03-09T08:27:18Z</time>
      </trkpt>
      <trkpt lat="47.13028" lon="5.49679">
        <ele>276</ele>
        <time>2016-03-09T08:27:24Z</time>
      </trkpt>
      <trkpt lat="47.13033" lon="5.49666">
        <ele>276</ele>
        <time>2016-03-09T08:27:33Z</time>
      </trkpt>
      <trkpt lat="47.13044" lon="5.49648">
        <ele>275</ele>
        <time>2016-03-09T08:27:48Z</time>
      </trkpt>
      <trkpt lat="47.13043" lon="5.49642">
        <ele>276</ele>
        <time>2016-03-09T08:28:22Z</time>
      </trkpt>
      <trkpt lat="47.13045" lon="5.49639">
        <ele>277</ele>
        <time>2016-03-09T08:29:36Z</time>
      </trkpt>
      <trkpt lat="47.13045" lon="5.49625">
        <ele>277</ele>
        <time>2016-03-09T08:31:03Z</time>
      </trkpt>
      <trkpt lat="47.13042" lon="5.49612">
        <ele>277</ele>
        <time>2016-03-09T08:31:16Z</time>
      </trkpt>
      <trkpt lat="47.13027" lon="5.49596">
        <ele>278</ele>
        <time>2016-03-09T08:31:31Z</time>
      </trkpt>
      <trkpt lat="47.13019" lon="5.49586">
        <ele>278</ele>
        <time>2016-03-09T08:31:39Z</time>
      </trkpt>
      <trkpt lat="47.13005" lon="5.4957">
        <ele>279</ele>
        <time>2016-03-09T08:31:56Z</time>
      </trkpt>
      <trkpt lat="47.12973" lon="5.49539">
        <ele>286</ele>
        <time>2016-03-09T08:32:36Z</time>
      </trkpt>
      <trkpt lat="47.12965" lon="5.49532">
        <ele>288</ele>
        <time>2016-03-09T08:32:46Z</time>
      </trkpt>
      <trkpt lat="47.12957" lon="5.49525">
        <ele>288</ele>
        <time>2016-03-09T08:32:53Z</time>
      </trkpt>
      <trkpt lat="47.1295" lon="5.49516">
        <ele>290</ele>
        <time>2016-03-09T08:33:05Z</time>
      </trkpt>
      <trkpt lat="47.12926" lon="5.49496">
        <ele>291</ele>
        <time>2016-03-09T08:33:29Z</time>
      </trkpt>
      <trkpt lat="47.12893" lon="5.49466">
        <ele>297</ele>
        <time>2016-03-09T08:34:02Z</time>
      </trkpt>
      <trkpt lat="47.12861" lon="5.49439">
        <ele>301</ele>
        <time>2016-03-09T08:34:34Z</time>
      </trkpt>
      <trkpt lat="47.12828" lon="5.49408">
        <ele>306</ele>
        <time>2016-03-09T08:35:05Z</time>
      </trkpt>
      <trkpt lat="47.12819" lon="5.49402">
        <ele>307</ele>
        <time>2016-03-09T08:35:12Z</time>
      </trkpt>
      <trkpt lat="47.1281" lon="5.49398">
        <ele>307</ele>
        <time>2016-03-09T08:35:20Z</time>
      </trkpt>
      <trkpt lat="47.12784" lon="5.49381">
        <ele>306</ele>
        <time>2016-03-09T08:35:44Z</time>
      </trkpt>
      <trkpt lat="47.12768" lon="5.49366">
        <ele>307</ele>
        <time>2016-03-09T08:35:58Z</time>
      </trkpt>
      <trkpt lat="47.12751" lon="5.49353">
        <ele>310</ele>
        <time>2016-03-09T08:36:16Z</time>
      </trkpt>
      <trkpt lat="47.12738" lon="5.49341">
        <ele>311</ele>
        <time>2016-03-09T08:36:28Z</time>
      </trkpt>
      <trkpt lat="47.1272" lon="5.49329">
        <ele>311</ele>
        <time>2016-03-09T08:36:43Z</time>
      </trkpt>
      <trkpt lat="47.12712" lon="5.49322">
        <ele>311</ele>
        <time>2016-03-09T08:36:50Z</time>
      </trkpt>
      <trkpt lat="47.12707" lon="5.49319">
        <ele>311</ele>
        <time>2016-03-09T08:36:54Z</time>
      </trkpt>
      <trkpt lat="47.12702" lon="5.49317">
        <ele>311</ele>
        <time>2016-03-09T08:36:58Z</time>
      </trkpt>
      <trkpt lat="47.12694" lon="5.49308">
        <ele>312</ele>
        <time>2016-03-09T08:37:06Z</time>
      </trkpt>
      <trkpt lat="47.1269" lon="5.49303">
        <ele>312</ele>
        <time>2016-03-09T08:37:10Z</time>
      </trkpt>
      <trkpt lat="47.12681" lon="5.49292">
        <ele>313</ele>
        <time>2016-03-09T08:37:19Z</time>
      </trkpt>
      <trkpt lat="47.1268" lon="5.49286">
        <ele>314</ele>
        <time>2016-03-09T08:37:25Z</time>
      </trkpt>
      <trkpt lat="47.12668" lon="5.49265">
        <ele>314</ele>
        <time>2016-03-09T08:37:42Z</time>
      </trkpt>
      <trkpt lat="47.12648" lon="5.49214">
        <ele>317</ele>
        <time>2016-03-09T08:38:18Z</time>
      </trkpt>
      <trkpt lat="47.12646" lon="5.49207">
        <ele>317</ele>
        <time>2016-03-09T08:38:23Z</time>
      </trkpt>
      <trkpt lat="47.12637" lon="5.4919">
        <ele>319</ele>
        <time>2016-03-09T08:38:40Z</time>
      </trkpt>
      <trkpt lat="47.12624" lon="5.49179">
        <ele>320</ele>
        <time>2016-03-09T08:38:53Z</time>
      </trkpt>
      <trkpt lat="47.12613" lon="5.49177">
        <ele>321</ele>
        <time>2016-03-09T08:39:02Z</time>
      </trkpt>
      <trkpt lat="47.12609" lon="5.49177">
        <ele>322</ele>
        <time>2016-03-09T08:39:06Z</time>
      </trkpt>
      <trkpt lat="47.12599" lon="5.49175">
        <ele>323</ele>
        <time>2016-03-09T08:39:14Z</time>
      </trkpt>
      <trkpt lat="47.12588" lon="5.49172">
        <ele>323</ele>
        <time>2016-03-09T08:39:22Z</time>
      </trkpt>
      <trkpt lat="47.12571" lon="5.49168">
        <ele>325</ele>
        <time>2016-03-09T08:39:36Z</time>
      </trkpt>
      <trkpt lat="47.12566" lon="5.49165">
        <ele>325</ele>
        <time>2016-03-09T08:39:41Z</time>
      </trkpt>
      <trkpt lat="47.12561" lon="5.49166">
        <ele>324</ele>
        <time>2016-03-09T08:39:46Z</time>
      </trkpt>
      <trkpt lat="47.12551" lon="5.49168">
        <ele>323</ele>
        <time>2016-03-09T08:39:55Z</time>
      </trkpt>
      <trkpt lat="47.12542" lon="5.49174">
        <ele>323</ele>
        <time>2016-03-09T08:40:02Z</time>
      </trkpt>
      <trkpt lat="47.12538" lon="5.4918">
        <ele>323</ele>
        <time>2016-03-09T08:40:06Z</time>
      </trkpt>
      <trkpt lat="47.12524" lon="5.49193">
        <ele>323</ele>
        <time>2016-03-09T08:40:18Z</time>
      </trkpt>
      <trkpt lat="47.1252" lon="5.49192">
        <ele>323</ele>
        <time>2016-03-09T08:40:22Z</time>
      </trkpt>
      <trkpt lat="47.12515" lon="5.49192">
        <ele>323</ele>
        <time>2016-03-09T08:40:28Z</time>
      </trkpt>
      <trkpt lat="47.1251" lon="5.49191">
        <ele>322</ele>
        <time>2016-03-09T08:40:32Z</time>
      </trkpt>
      <trkpt lat="47.12505" lon="5.49189">
        <ele>322</ele>
        <time>2016-03-09T08:40:36Z</time>
      </trkpt>
      <trkpt lat="47.12495" lon="5.49181">
        <ele>322</ele>
        <time>2016-03-09T08:40:44Z</time>
      </trkpt>
      <trkpt lat="47.1249" lon="5.49179">
        <ele>322</ele>
        <time>2016-03-09T08:40:49Z</time>
      </trkpt>
      <trkpt lat="47.12461" lon="5.49159">
        <ele>321</ele>
        <time>2016-03-09T08:41:15Z</time>
      </trkpt>
      <trkpt lat="47.12457" lon="5.49157">
        <ele>322</ele>
        <time>2016-03-09T08:41:23Z</time>
      </trkpt>
      <trkpt lat="47.12453" lon="5.49154">
        <ele>322</ele>
        <time>2016-03-09T08:41:29Z</time>
      </trkpt>
      <trkpt lat="47.12444" lon="5.4915">
        <ele>320</ele>
        <time>2016-03-09T08:41:47Z</time>
      </trkpt>
      <trkpt lat="47.12437" lon="5.49139">
        <ele>320</ele>
        <time>2016-03-09T08:41:54Z</time>
      </trkpt>
      <trkpt lat="47.12412" lon="5.49114">
        <ele>321</ele>
        <time>2016-03-09T08:42:24Z</time>
      </trkpt>
      <trkpt lat="47.12399" lon="5.49099">
        <ele>322</ele>
        <time>2016-03-09T08:42:36Z</time>
      </trkpt>
      <trkpt lat="47.1239" lon="5.49093">
        <ele>322</ele>
        <time>2016-03-09T08:42:47Z</time>
      </trkpt>
      <trkpt lat="47.12386" lon="5.49089">
        <ele>322</ele>
        <time>2016-03-09T08:42:53Z</time>
      </trkpt>
      <trkpt lat="47.12371" lon="5.49067">
        <ele>321</ele>
        <time>2016-03-09T08:43:10Z</time>
      </trkpt>
      <trkpt lat="47.12365" lon="5.49056">
        <ele>321</ele>
        <time>2016-03-09T08:43:17Z</time>
      </trkpt>
      <trkpt lat="47.12351" lon="5.49032">
        <ele>322</ele>
        <time>2016-03-09T08:43:32Z</time>
      </trkpt>
      <trkpt lat="47.1235" lon="5.49019">
        <ele>324</ele>
        <time>2016-03-09T08:43:39Z</time>
      </trkpt>
      <trkpt lat="47.12349" lon="5.48992">
        <ele>326</ele>
        <time>2016-03-09T08:43:54Z</time>
      </trkpt>
      <trkpt lat="47.12347" lon="5.48978">
        <ele>326</ele>
        <time>2016-03-09T08:44:02Z</time>
      </trkpt>
      <trkpt lat="47.12335" lon="5.48924">
        <ele>325</ele>
        <time>2016-03-09T08:44:35Z</time>
      </trkpt>
      <trkpt lat="47.12327" lon="5.48884">
        <ele>323</ele>
        <time>2016-03-09T08:44:59Z</time>
      </trkpt>
      <trkpt lat="47.12321" lon="5.48857">
        <ele>324</ele>
        <time>2016-03-09T08:45:12Z</time>
      </trkpt>
      <trkpt lat="47.1232" lon="5.48844">
        <ele>323</ele>
        <time>2016-03-09T08:45:22Z</time>
      </trkpt>
      <trkpt lat="47.1231" lon="5.48811">
        <ele>324</ele>
        <time>2016-03-09T08:45:47Z</time>
      </trkpt>
      <trkpt lat="47.12306" lon="5.48807">
        <ele>323</ele>
        <time>2016-03-09T08:45:52Z</time>
      </trkpt>
      <trkpt lat="47.12303" lon="5.48809">
        <ele>323</ele>
        <time>2016-03-09T08:46:00Z</time>
      </trkpt>
      <trkpt lat="47.12298" lon="5.48805">
        <ele>323</ele>
        <time>2016-03-09T08:46:08Z</time>
      </trkpt>
      <trkpt lat="47.12263" lon="5.48759">
        <ele>318</ele>
        <time>2016-03-09T08:46:39Z</time>
      </trkpt>
      <trkpt lat="47.1226" lon="5.48753">
        <ele>318</ele>
        <time>2016-03-09T08:46:41Z</time>
      </trkpt>
      <trkpt lat="47.12243" lon="5.48736">
        <ele>321</ele>
        <time>2016-03-09T08:46:54Z</time>
      </trkpt>
      <trkpt lat="47.12234" lon="5.48735">
        <ele>322</ele>
        <time>2016-03-09T08:47:02Z</time>
      </trkpt>
      <trkpt lat="47.12229" lon="5.48735">
        <ele>322</ele>
        <time>2016-03-09T08:47:06Z</time>
      </trkpt>
      <trkpt lat="47.12189" lon="5.48748">
        <ele>328</ele>
        <time>2016-03-09T08:47:38Z</time>
      </trkpt>
      <trkpt lat="47.12169" lon="5.48751">
        <ele>328</ele>
        <time>2016-03-09T08:47:56Z</time>
      </trkpt>
      <trkpt lat="47.12152" lon="5.48753">
        <ele>325</ele>
        <time>2016-03-09T08:48:08Z</time>
      </trkpt>
      <trkpt lat="47.12147" lon="5.48754">
        <ele>325</ele>
        <time>2016-03-09T08:48:11Z</time>
      </trkpt>
      <trkpt lat="47.12128" lon="5.48765">
        <ele>326</ele>
        <time>2016-03-09T08:48:28Z</time>
      </trkpt>
      <trkpt lat="47.12119" lon="5.4877">
        <ele>324</ele>
        <time>2016-03-09T08:48:42Z</time>
      </trkpt>
      <trkpt lat="47.121" lon="5.48778">
        <ele>324</ele>
        <time>2016-03-09T08:49:04Z</time>
      </trkpt>
      <trkpt lat="47.12091" lon="5.48784">
        <ele>325</ele>
        <time>2016-03-09T08:49:13Z</time>
      </trkpt>
      <trkpt lat="47.12086" lon="5.48782">
        <ele>324</ele>
        <time>2016-03-09T08:49:18Z</time>
      </trkpt>
      <trkpt lat="47.1208" lon="5.48784">
        <ele>324</ele>
        <time>2016-03-09T08:49:23Z</time>
      </trkpt>
      <trkpt lat="47.12076" lon="5.48786">
        <ele>324</ele>
        <time>2016-03-09T08:49:27Z</time>
      </trkpt>
      <trkpt lat="47.12071" lon="5.48789">
        <ele>324</ele>
        <time>2016-03-09T08:49:31Z</time>
      </trkpt>
      <trkpt lat="47.12069" lon="5.48796">
        <ele>323</ele>
        <time>2016-03-09T08:49:35Z</time>
      </trkpt>
      <trkpt lat="47.12064" lon="5.48795">
        <ele>323</ele>
        <time>2016-03-09T08:49:39Z</time>
      </trkpt>
      <trkpt lat="47.12051" lon="5.48786">
        <ele>322</ele>
        <time>2016-03-09T08:49:48Z</time>
      </trkpt>
      <trkpt lat="47.12041" lon="5.48788">
        <ele>322</ele>
        <time>2016-03-09T08:49:57Z</time>
      </trkpt>
      <trkpt lat="47.12027" lon="5.48787">
        <ele>321</ele>
        <time>2016-03-09T08:50:09Z</time>
      </trkpt>
      <trkpt lat="47.12013" lon="5.48782">
        <ele>321</ele>
        <time>2016-03-09T08:50:18Z</time>
      </trkpt>
      <trkpt lat="47.12009" lon="5.48779">
        <ele>321</ele>
        <time>2016-03-09T08:50:21Z</time>
      </trkpt>
      <trkpt lat="47.12003" lon="5.48779">
        <ele>321</ele>
        <time>2016-03-09T08:50:25Z</time>
      </trkpt>
      <trkpt lat="47.11978" lon="5.48767">
        <ele>321</ele>
        <time>2016-03-09T08:50:44Z</time>
      </trkpt>
      <trkpt lat="47.11967" lon="5.48766">
        <ele>320</ele>
        <time>2016-03-09T08:50:52Z</time>
      </trkpt>
      <trkpt lat="47.11953" lon="5.48761">
        <ele>320</ele>
        <time>2016-03-09T08:51:03Z</time>
      </trkpt>
      <trkpt lat="47.11949" lon="5.48765">
        <ele>320</ele>
        <time>2016-03-09T08:51:07Z</time>
      </trkpt>
      <trkpt lat="47.1194" lon="5.48767">
        <ele>320</ele>
        <time>2016-03-09T08:51:16Z</time>
      </trkpt>
      <trkpt lat="47.11901" lon="5.48762">
        <ele>317</ele>
        <time>2016-03-09T08:51:48Z</time>
      </trkpt>
      <trkpt lat="47.11891" lon="5.48762">
        <ele>317</ele>
        <time>2016-03-09T08:51:56Z</time>
      </trkpt>
      <trkpt lat="47.11883" lon="5.48764">
        <ele>317</ele>
        <time>2016-03-09T08:52:02Z</time>
      </trkpt>
      <trkpt lat="47.11877" lon="5.48766">
        <ele>317</ele>
        <time>2016-03-09T08:52:08Z</time>
      </trkpt>
      <trkpt lat="47.11873" lon="5.48768">
        <ele>317</ele>
        <time>2016-03-09T08:52:12Z</time>
      </trkpt>
      <trkpt lat="47.11868" lon="5.4877">
        <ele>316</ele>
        <time>2016-03-09T08:52:16Z</time>
      </trkpt>
      <trkpt lat="47.11854" lon="5.48767">
        <ele>315</ele>
        <time>2016-03-09T08:52:27Z</time>
      </trkpt>
      <trkpt lat="47.11835" lon="5.48754">
        <ele>315</ele>
        <time>2016-03-09T08:52:40Z</time>
      </trkpt>
      <trkpt lat="47.11831" lon="5.48755">
        <ele>315</ele>
        <time>2016-03-09T08:52:44Z</time>
      </trkpt>
      <trkpt lat="47.11826" lon="5.48758">
        <ele>315</ele>
        <time>2016-03-09T08:52:49Z</time>
      </trkpt>
      <trkpt lat="47.11821" lon="5.48756">
        <ele>315</ele>
        <time>2016-03-09T08:52:53Z</time>
      </trkpt>
      <trkpt lat="47.11799" lon="5.48742">
        <ele>314</ele>
        <time>2016-03-09T08:53:12Z</time>
      </trkpt>
      <trkpt lat="47.11757" lon="5.48704">
        <ele>316</ele>
        <time>2016-03-09T08:53:45Z</time>
      </trkpt>
      <trkpt lat="47.11752" lon="5.48702">
        <ele>316</ele>
        <time>2016-03-09T08:53:50Z</time>
      </trkpt>
      <trkpt lat="47.11738" lon="5.48693">
        <ele>315</ele>
        <time>2016-03-09T08:54:04Z</time>
      </trkpt>
      <trkpt lat="47.11729" lon="5.48685">
        <ele>316</ele>
        <time>2016-03-09T08:54:12Z</time>
      </trkpt>
      <trkpt lat="47.11705" lon="5.48673">
        <ele>317</ele>
        <time>2016-03-09T08:54:35Z</time>
      </trkpt>
      <trkpt lat="47.11679" lon="5.48659">
        <ele>321</ele>
        <time>2016-03-09T08:55:04Z</time>
      </trkpt>
      <trkpt lat="47.11671" lon="5.4865">
        <ele>321</ele>
        <time>2016-03-09T08:55:11Z</time>
      </trkpt>
      <trkpt lat="47.11654" lon="5.48636">
        <ele>323</ele>
        <time>2016-03-09T08:55:28Z</time>
      </trkpt>
      <trkpt lat="47.11645" lon="5.4863">
        <ele>325</ele>
        <time>2016-03-09T08:55:36Z</time>
      </trkpt>
      <trkpt lat="47.11619" lon="5.48611">
        <ele>327</ele>
        <time>2016-03-09T08:56:06Z</time>
      </trkpt>
      <trkpt lat="47.11604" lon="5.48591">
        <ele>327</ele>
        <time>2016-03-09T08:56:17Z</time>
      </trkpt>
      <trkpt lat="47.11568" lon="5.48582">
        <ele>324</ele>
        <time>2016-03-09T08:56:46Z</time>
      </trkpt>
      <trkpt lat="47.11554" lon="5.48591">
        <ele>324</ele>
        <time>2016-03-09T08:57:00Z</time>
      </trkpt>
      <trkpt lat="47.11544" lon="5.48596">
        <ele>323</ele>
        <time>2016-03-09T08:57:10Z</time>
      </trkpt>
      <trkpt lat="47.11524" lon="5.48587">
        <ele>323</ele>
        <time>2016-03-09T08:57:25Z</time>
      </trkpt>
      <trkpt lat="47.11514" lon="5.48585">
        <ele>322</ele>
        <time>2016-03-09T08:57:33Z</time>
      </trkpt>
      <trkpt lat="47.11509" lon="5.48586">
        <ele>321</ele>
        <time>2016-03-09T08:57:38Z</time>
      </trkpt>
      <trkpt lat="47.11504" lon="5.48586">
        <ele>321</ele>
        <time>2016-03-09T08:57:43Z</time>
      </trkpt>
      <trkpt lat="47.11485" lon="5.48573">
        <ele>319</ele>
        <time>2016-03-09T08:57:57Z</time>
      </trkpt>
      <trkpt lat="47.11467" lon="5.48563">
        <ele>319</ele>
        <time>2016-03-09T08:58:14Z</time>
      </trkpt>
      <trkpt lat="47.1146" lon="5.48555">
        <ele>319</ele>
        <time>2016-03-09T08:58:21Z</time>
      </trkpt>
      <trkpt lat="47.11455" lon="5.48548">
        <ele>319</ele>
        <time>2016-03-09T08:58:25Z</time>
      </trkpt>
      <trkpt lat="47.11445" lon="5.48545">
        <ele>319</ele>
        <time>2016-03-09T08:58:36Z</time>
      </trkpt>
      <trkpt lat="47.1144" lon="5.48539">
        <ele>319</ele>
        <time>2016-03-09T08:58:40Z</time>
      </trkpt>
      <trkpt lat="47.11435" lon="5.48537">
        <ele>319</ele>
        <time>2016-03-09T08:58:46Z</time>
      </trkpt>
      <trkpt lat="47.11433" lon="5.48544">
        <ele>320</ele>
        <time>2016-03-09T08:58:51Z</time>
      </trkpt>
      <trkpt lat="47.1143" lon="5.48544">
        <ele>320</ele>
        <time>2016-03-09T08:58:54Z</time>
      </trkpt>
      <trkpt lat="47.11417" lon="5.48531">
        <ele>320</ele>
        <time>2016-03-09T08:59:06Z</time>
      </trkpt>
      <trkpt lat="47.11406" lon="5.48517">
        <ele>321</ele>
        <time>2016-03-09T08:59:18Z</time>
      </trkpt>
      <trkpt lat="47.1137" lon="5.48475">
        <ele>321</ele>
        <time>2016-03-09T08:59:49Z</time>
      </trkpt>
      <trkpt lat="47.11364" lon="5.48474">
        <ele>321</ele>
        <time>2016-03-09T08:59:55Z</time>
      </trkpt>
      <trkpt lat="47.1136" lon="5.4847">
        <ele>321</ele>
        <time>2016-03-09T09:00:01Z</time>
      </trkpt>
      <trkpt lat="47.11356" lon="5.48465">
        <ele>321</ele>
        <time>2016-03-09T09:00:05Z</time>
      </trkpt>
      <trkpt lat="47.11352" lon="5.48461">
        <ele>320</ele>
        <time>2016-03-09T09:00:09Z</time>
      </trkpt>
      <trkpt lat="47.11344" lon="5.4845">
        <ele>320</ele>
        <time>2016-03-09T09:00:16Z</time>
      </trkpt>
      <trkpt lat="47.1134" lon="5.48446">
        <ele>319</ele>
        <time>2016-03-09T09:00:20Z</time>
      </trkpt>
      <trkpt lat="47.11336" lon="5.48442">
        <ele>319</ele>
        <time>2016-03-09T09:00:25Z</time>
      </trkpt>
      <trkpt lat="47.11328" lon="5.48432">
        <ele>320</ele>
        <time>2016-03-09T09:00:35Z</time>
      </trkpt>
      <trkpt lat="47.1132" lon="5.48419">
        <ele>320</ele>
        <time>2016-03-09T09:00:41Z</time>
      </trkpt>
      <trkpt lat="47.1131" lon="5.48403">
        <ele>319</ele>
        <time>2016-03-09T09:00:50Z</time>
      </trkpt>
      <trkpt lat="47.11305" lon="5.48401">
        <ele>318</ele>
        <time>2016-03-09T09:00:57Z</time>
      </trkpt>
      <trkpt lat="47.11302" lon="5.48397">
        <ele>318</ele>
        <time>2016-03-09T09:00:59Z</time>
      </trkpt>
      <trkpt lat="47.11297" lon="5.48394">
        <ele>319</ele>
        <time>2016-03-09T09:01:04Z</time>
      </trkpt>
      <trkpt lat="47.11288" lon="5.48389">
        <ele>318</ele>
        <time>2016-03-09T09:01:13Z</time>
      </trkpt>
      <trkpt lat="47.11278" lon="5.48381">
        <ele>317</ele>
        <time>2016-03-09T09:01:20Z</time>
      </trkpt>
      <trkpt lat="47.11273" lon="5.48381">
        <ele>317</ele>
        <time>2016-03-09T09:01:25Z</time>
      </trkpt>
      <trkpt lat="47.11269" lon="5.48385">
        <ele>317</ele>
        <time>2016-03-09T09:01:29Z</time>
      </trkpt>
      <trkpt lat="47.11254" lon="5.48389">
        <ele>313</ele>
        <time>2016-03-09T09:01:41Z</time>
      </trkpt>
      <trkpt lat="47.11223" lon="5.48392">
        <ele>309</ele>
        <time>2016-03-09T09:02:04Z</time>
      </trkpt>
      <trkpt lat="47.11192" lon="5.48406">
        <ele>307</ele>
        <time>2016-03-09T09:02:34Z</time>
      </trkpt>
      <trkpt lat="47.11181" lon="5.48409">
        <ele>306</ele>
        <time>2016-03-09T09:02:44Z</time>
      </trkpt>
      <trkpt lat="47.11177" lon="5.4841">
        <ele>306</ele>
        <time>2016-03-09T09:02:49Z</time>
      </trkpt>
      <trkpt lat="47.11172" lon="5.48409">
        <ele>306</ele>
        <time>2016-03-09T09:02:53Z</time>
      </trkpt>
      <trkpt lat="47.11168" lon="5.48404">
        <ele>306</ele>
        <time>2016-03-09T09:02:58Z</time>
      </trkpt>
      <trkpt lat="47.11145" lon="5.48357">
        <ele>305</ele>
        <time>2016-03-09T09:03:21Z</time>
      </trkpt>
      <trkpt lat="47.11132" lon="5.48337">
        <ele>302</ele>
        <time>2016-03-09T09:03:37Z</time>
      </trkpt>
      <trkpt lat="47.11124" lon="5.48327">
        <ele>302</ele>
        <time>2016-03-09T09:03:46Z</time>
      </trkpt>
      <trkpt lat="47.11119" lon="5.48323">
        <ele>302</ele>
        <time>2016-03-09T09:03:50Z</time>
      </trkpt>
      <trkpt lat="47.11115" lon="5.48323">
        <ele>301</ele>
        <time>2016-03-09T09:03:57Z</time>
      </trkpt>
      <trkpt lat="47.11106" lon="5.48331">
        <ele>301</ele>
        <time>2016-03-09T09:04:07Z</time>
      </trkpt>
      <trkpt lat="47.111" lon="5.48331">
        <ele>300</ele>
        <time>2016-03-09T09:04:11Z</time>
      </trkpt>
      <trkpt lat="47.11095" lon="5.48328">
        <ele>300</ele>
        <time>2016-03-09T09:04:15Z</time>
      </trkpt>
      <trkpt lat="47.11081" lon="5.48335">
        <ele>299</ele>
        <time>2016-03-09T09:04:27Z</time>
      </trkpt>
      <trkpt lat="47.11076" lon="5.48339">
        <ele>299</ele>
        <time>2016-03-09T09:04:31Z</time>
      </trkpt>
      <trkpt lat="47.11071" lon="5.48341">
        <ele>298</ele>
        <time>2016-03-09T09:04:35Z</time>
      </trkpt>
      <trkpt lat="47.11066" lon="5.48344">
        <ele>298</ele>
        <time>2016-03-09T09:04:41Z</time>
      </trkpt>
      <trkpt lat="47.11052" lon="5.48339">
        <ele>296</ele>
        <time>2016-03-09T09:04:55Z</time>
      </trkpt>
      <trkpt lat="47.11036" lon="5.48322">
        <ele>293</ele>
        <time>2016-03-09T09:05:13Z</time>
      </trkpt>
      <trkpt lat="47.11032" lon="5.48318">
        <ele>293</ele>
        <time>2016-03-09T09:05:17Z</time>
      </trkpt>
      <trkpt lat="47.11028" lon="5.48314">
        <ele>293</ele>
        <time>2016-03-09T09:05:21Z</time>
      </trkpt>
      <trkpt lat="47.11018" lon="5.48306">
        <ele>293</ele>
        <time>2016-03-09T09:05:29Z</time>
      </trkpt>
      <trkpt lat="47.11007" lon="5.48292">
        <ele>293</ele>
        <time>2016-03-09T09:05:40Z</time>
      </trkpt>
      <trkpt lat="47.10994" lon="5.48284">
        <ele>291</ele>
        <time>2016-03-09T09:05:56Z</time>
      </trkpt>
      <trkpt lat="47.1099" lon="5.48278">
        <ele>289</ele>
        <time>2016-03-09T09:06:01Z</time>
      </trkpt>
      <trkpt lat="47.10984" lon="5.48278">
        <ele>282</ele>
        <time>2016-03-09T09:08:43Z</time>
      </trkpt>
      <trkpt lat="47.10986" lon="5.48278">
        <ele>282</ele>
        <time>2016-03-09T09:09:08Z</time>
      </trkpt>
      <trkpt lat="47.10989" lon="5.48275">
        <ele>281</ele>
        <time>2016-03-09T09:09:45Z</time>
      </trkpt>
      <trkpt lat="47.1099" lon="5.48263">
        <ele>279</ele>
        <time>2016-03-09T09:11:04Z</time>
      </trkpt>
      <trkpt lat="47.10997" lon="5.48237">
        <ele>279</ele>
        <time>2016-03-09T09:11:25Z</time>
      </trkpt>
      <trkpt lat="47.11007" lon="5.482">
        <ele>283</ele>
        <time>2016-03-09T09:11:44Z</time>
      </trkpt>
      <trkpt lat="47.11009" lon="5.48193">
        <ele>283</ele>
        <time>2016-03-09T09:11:48Z</time>
      </trkpt>
      <trkpt lat="47.11012" lon="5.48136">
        <ele>279</ele>
        <time>2016-03-09T09:12:21Z</time>
      </trkpt>
      <trkpt lat="47.11017" lon="5.48115">
        <ele>280</ele>
        <time>2016-03-09T09:12:33Z</time>
      </trkpt>
      <trkpt lat="47.11026" lon="5.48107">
        <ele>281</ele>
        <time>2016-03-09T09:12:42Z</time>
      </trkpt>
      <trkpt lat="47.11031" lon="5.48103">
        <ele>282</ele>
        <time>2016-03-09T09:12:47Z</time>
      </trkpt>
      <trkpt lat="47.11063" lon="5.48085">
        <ele>285</ele>
        <time>2016-03-09T09:13:17Z</time>
      </trkpt>
      <trkpt lat="47.11088" lon="5.48063">
        <ele>287</ele>
        <time>2016-03-09T09:13:44Z</time>
      </trkpt>
      <trkpt lat="47.1109" lon="5.48057">
        <ele>287</ele>
        <time>2016-03-09T09:13:48Z</time>
      </trkpt>
      <trkpt lat="47.11092" lon="5.4805">
        <ele>286</ele>
        <time>2016-03-09T09:13:52Z</time>
      </trkpt>
      <trkpt lat="47.11094" lon="5.48043">
        <ele>286</ele>
        <time>2016-03-09T09:13:56Z</time>
      </trkpt>
      <trkpt lat="47.11098" lon="5.48033">
        <ele>285</ele>
        <time>2016-03-09T09:14:08Z</time>
      </trkpt>
      <trkpt lat="47.11098" lon="5.48026">
        <ele>285</ele>
        <time>2016-03-09T09:14:15Z</time>
      </trkpt>
      <trkpt lat="47.11095" lon="5.48005">
        <ele>285</ele>
        <time>2016-03-09T09:14:27Z</time>
      </trkpt>
      <trkpt lat="47.11101" lon="5.47986">
        <ele>282</ele>
        <time>2016-03-09T09:14:39Z</time>
      </trkpt>
      <trkpt lat="47.11121" lon="5.47937">
        <ele>278</ele>
        <time>2016-03-09T09:15:12Z</time>
      </trkpt>
      <trkpt lat="47.11124" lon="5.47923">
        <ele>277</ele>
        <time>2016-03-09T09:15:20Z</time>
      </trkpt>
      <trkpt lat="47.11128" lon="5.47918">
        <ele>277</ele>
        <time>2016-03-09T09:15:23Z</time>
      </trkpt>
      <trkpt lat="47.11133" lon="5.4789">
        <ele>275</ele>
        <time>2016-03-09T09:15:40Z</time>
      </trkpt>
      <trkpt lat="47.11133" lon="5.47868">
        <ele>274</ele>
        <time>2016-03-09T09:15:52Z</time>
      </trkpt>
      <trkpt lat="47.11133" lon="5.4786">
        <ele>274</ele>
        <time>2016-03-09T09:15:56Z</time>
      </trkpt>
      <trkpt lat="47.11132" lon="5.47853">
        <ele>274</ele>
        <time>2016-03-09T09:16:00Z</time>
      </trkpt>
      <trkpt lat="47.1113" lon="5.47802">
        <ele>270</ele>
        <time>2016-03-09T09:16:32Z</time>
      </trkpt>
      <trkpt lat="47.1113" lon="5.47788">
        <ele>269</ele>
        <time>2016-03-09T09:16:41Z</time>
      </trkpt>
      <trkpt lat="47.1112" lon="5.47749">
        <ele>265</ele>
        <time>2016-03-09T09:17:06Z</time>
      </trkpt>
      <trkpt lat="47.11113" lon="5.47741">
        <ele>264</ele>
        <time>2016-03-09T09:17:13Z</time>
      </trkpt>
      <trkpt lat="47.11064" lon="5.47728">
        <ele>255</ele>
        <time>2016-03-09T09:17:50Z</time>
      </trkpt>
      <trkpt lat="47.11045" lon="5.47725">
        <ele>253</ele>
        <time>2016-03-09T09:18:05Z</time>
      </trkpt>
      <trkpt lat="47.11007" lon="5.47723">
        <ele>253</ele>
        <time>2016-03-09T09:18:37Z</time>
      </trkpt>
      <trkpt lat="47.10988" lon="5.47717">
        <ele>253</ele>
        <time>2016-03-09T09:18:53Z</time>
      </trkpt>
      <trkpt lat="47.10948" lon="5.47697">
        <ele>257</ele>
        <time>2016-03-09T09:19:25Z</time>
      </trkpt>
      <trkpt lat="47.10928" lon="5.47695">
        <ele>257</ele>
        <time>2016-03-09T09:19:41Z</time>
      </trkpt>
      <trkpt lat="47.10923" lon="5.47694">
        <ele>257</ele>
        <time>2016-03-09T09:19:47Z</time>
      </trkpt>
      <trkpt lat="47.10914" lon="5.47692">
        <ele>257</ele>
        <time>2016-03-09T09:20:02Z</time>
      </trkpt>
      <trkpt lat="47.10914" lon="5.47685">
        <ele>257</ele>
        <time>2016-03-09T09:20:09Z</time>
      </trkpt>
      <trkpt lat="47.10916" lon="5.47683">
        <ele>258</ele>
        <time>2016-03-09T09:20:16Z</time>
      </trkpt>
      <trkpt lat="47.10919" lon="5.47677">
        <ele>260</ele>
        <time>2016-03-09T09:20:34Z</time>
      </trkpt>
      <trkpt lat="47.1092" lon="5.4767">
        <ele>260</ele>
        <time>2016-03-09T09:20:41Z</time>
      </trkpt>
      <trkpt lat="47.10925" lon="5.47658">
        <ele>260</ele>
        <time>2016-03-09T09:20:50Z</time>
      </trkpt>
      <trkpt lat="47.10925" lon="5.47651">
        <ele>260</ele>
        <time>2016-03-09T09:20:58Z</time>
      </trkpt>
      <trkpt lat="47.10925" lon="5.47647">
        <ele>260</ele>
        <time>2016-03-09T09:21:09Z</time>
      </trkpt>
      <trkpt lat="47.10929" lon="5.47634">
        <ele>259</ele>
        <time>2016-03-09T09:21:18Z</time>
      </trkpt>
      <trkpt lat="47.10956" lon="5.47589">
        <ele>260</ele>
        <time>2016-03-09T09:21:50Z</time>
      </trkpt>
      <trkpt lat="47.10969" lon="5.47565">
        <ele>260</ele>
        <time>2016-03-09T09:22:06Z</time>
      </trkpt>
      <trkpt lat="47.10972" lon="5.47559">
        <ele>260</ele>
        <time>2016-03-09T09:22:10Z</time>
      </trkpt>
      <trkpt lat="47.10978" lon="5.47547">
        <ele>260</ele>
        <time>2016-03-09T09:22:18Z</time>
      </trkpt>
      <trkpt lat="47.11008" lon="5.47502">
        <ele>262</ele>
        <time>2016-03-09T09:22:49Z</time>
      </trkpt>
      <trkpt lat="47.11034" lon="5.47455">
        <ele>264</ele>
        <time>2016-03-09T09:23:21Z</time>
      </trkpt>
      <trkpt lat="47.11043" lon="5.47437">
        <ele>265</ele>
        <time>2016-03-09T09:23:33Z</time>
      </trkpt>
      <trkpt lat="47.11046" lon="5.47431">
        <ele>266</ele>
        <time>2016-03-09T09:23:37Z</time>
      </trkpt>
      <trkpt lat="47.1106" lon="5.47382">
        <ele>271</ele>
        <time>2016-03-09T09:24:05Z</time>
      </trkpt>
      <trkpt lat="47.1106" lon="5.47373">
        <ele>271</ele>
        <time>2016-03-09T09:24:09Z</time>
      </trkpt>
      <trkpt lat="47.11062" lon="5.47351">
        <ele>270</ele>
        <time>2016-03-09T09:24:21Z</time>
      </trkpt>
      <trkpt lat="47.11072" lon="5.47301">
        <ele>270</ele>
        <time>2016-03-09T09:24:52Z</time>
      </trkpt>
      <trkpt lat="47.11072" lon="5.47294">
        <ele>271</ele>
        <time>2016-03-09T09:24:58Z</time>
      </trkpt>
      <trkpt lat="47.11073" lon="5.47286">
        <ele>271</ele>
        <time>2016-03-09T09:25:03Z</time>
      </trkpt>
      <trkpt lat="47.11079" lon="5.47265">
        <ele>271</ele>
        <time>2016-03-09T09:25:17Z</time>
      </trkpt>
      <trkpt lat="47.11083" lon="5.47244">
        <ele>273</ele>
        <time>2016-03-09T09:25:30Z</time>
      </trkpt>
      <trkpt lat="47.11086" lon="5.47222">
        <ele>273</ele>
        <time>2016-03-09T09:25:42Z</time>
      </trkpt>
      <trkpt lat="47.11093" lon="5.4721">
        <ele>275</ele>
        <time>2016-03-09T09:25:52Z</time>
      </trkpt>
      <trkpt lat="47.11125" lon="5.47192">
        <ele>283</ele>
        <time>2016-03-09T09:26:31Z</time>
      </trkpt>
      <trkpt lat="47.11163" lon="5.47196">
        <ele>286</ele>
        <time>2016-03-09T09:27:09Z</time>
      </trkpt>
      <trkpt lat="47.11173" lon="5.47194">
        <ele>287</ele>
        <time>2016-03-09T09:27:19Z</time>
      </trkpt>
      <trkpt lat="47.11182" lon="5.47195">
        <ele>287</ele>
        <time>2016-03-09T09:27:26Z</time>
      </trkpt>
      <trkpt lat="47.11191" lon="5.47202">
        <ele>289</ele>
        <time>2016-03-09T09:27:34Z</time>
      </trkpt>
      <trkpt lat="47.112" lon="5.47202">
        <ele>290</ele>
        <time>2016-03-09T09:27:40Z</time>
      </trkpt>
      <trkpt lat="47.11209" lon="5.4721">
        <ele>292</ele>
        <time>2016-03-09T09:27:47Z</time>
      </trkpt>
      <trkpt lat="47.11247" lon="5.47214">
        <ele>293</ele>
        <time>2016-03-09T09:28:20Z</time>
      </trkpt>
      <trkpt lat="47.11265" lon="5.47224">
        <ele>295</ele>
        <time>2016-03-09T09:28:37Z</time>
      </trkpt>
      <trkpt lat="47.11278" lon="5.47238">
        <ele>296</ele>
        <time>2016-03-09T09:28:49Z</time>
      </trkpt>
      <trkpt lat="47.11294" lon="5.47255">
        <ele>293</ele>
        <time>2016-03-09T09:29:05Z</time>
      </trkpt>
      <trkpt lat="47.11299" lon="5.47257">
        <ele>293</ele>
        <time>2016-03-09T09:29:09Z</time>
      </trkpt>
      <trkpt lat="47.11307" lon="5.47267">
        <ele>292</ele>
        <time>2016-03-09T09:29:18Z</time>
      </trkpt>
      <trkpt lat="47.11327" lon="5.47298">
        <ele>293</ele>
        <time>2016-03-09T09:29:43Z</time>
      </trkpt>
      <trkpt lat="47.11334" lon="5.47317">
        <ele>292</ele>
        <time>2016-03-09T09:30:03Z</time>
      </trkpt>
      <trkpt lat="47.11358" lon="5.4734">
        <ele>294</ele>
        <time>2016-03-09T09:30:35Z</time>
      </trkpt>
      <trkpt lat="47.11369" lon="5.47353">
        <ele>294</ele>
        <time>2016-03-09T09:30:50Z</time>
      </trkpt>
      <trkpt lat="47.11378" lon="5.47358">
        <ele>292</ele>
        <time>2016-03-09T09:31:00Z</time>
      </trkpt>
      <trkpt lat="47.11383" lon="5.47359">
        <ele>292</ele>
        <time>2016-03-09T09:31:05Z</time>
      </trkpt>
      <trkpt lat="47.11388" lon="5.47363">
        <ele>292</ele>
        <time>2016-03-09T09:31:10Z</time>
      </trkpt>
      <trkpt lat="47.11411" lon="5.47374">
        <ele>292</ele>
        <time>2016-03-09T09:31:36Z</time>
      </trkpt>
      <trkpt lat="47.1144" lon="5.47386">
        <ele>294</ele>
        <time>2016-03-09T09:32:08Z</time>
      </trkpt>
      <trkpt lat="47.11467" lon="5.47393">
        <ele>296</ele>
        <time>2016-03-09T09:32:38Z</time>
      </trkpt>
      <trkpt lat="47.11477" lon="5.47397">
        <ele>296</ele>
        <time>2016-03-09T09:32:47Z</time>
      </trkpt>
      <trkpt lat="47.11482" lon="5.474">
        <ele>296</ele>
        <time>2016-03-09T09:32:52Z</time>
      </trkpt>
      <trkpt lat="47.11492" lon="5.47403">
        <ele>296</ele>
        <time>2016-03-09T09:33:03Z</time>
      </trkpt>
      <trkpt lat="47.11497" lon="5.47405">
        <ele>295</ele>
        <time>2016-03-09T09:33:09Z</time>
      </trkpt>
      <trkpt lat="47.1152" lon="5.47415">
        <ele>296</ele>
        <time>2016-03-09T09:33:37Z</time>
      </trkpt>
      <trkpt lat="47.11544" lon="5.47426">
        <ele>300</ele>
        <time>2016-03-09T09:34:01Z</time>
      </trkpt>
      <trkpt lat="47.11548" lon="5.47428">
        <ele>299</ele>
        <time>2016-03-09T09:34:07Z</time>
      </trkpt>
      <trkpt lat="47.11551" lon="5.47434">
        <ele>298</ele>
        <time>2016-03-09T09:34:13Z</time>
      </trkpt>
      <trkpt lat="47.11561" lon="5.47436">
        <ele>296</ele>
        <time>2016-03-09T09:34:23Z</time>
      </trkpt>
      <trkpt lat="47.1157" lon="5.47443">
        <ele>295</ele>
        <time>2016-03-09T09:34:36Z</time>
      </trkpt>
      <trkpt lat="47.11579" lon="5.47448">
        <ele>296</ele>
        <time>2016-03-09T09:34:48Z</time>
      </trkpt>
      <trkpt lat="47.11584" lon="5.47448">
        <ele>296</ele>
        <time>2016-03-09T09:34:54Z</time>
      </trkpt>
      <trkpt lat="47.11594" lon="5.4745">
        <ele>296</ele>
        <time>2016-03-09T09:35:04Z</time>
      </trkpt>
      <trkpt lat="47.11598" lon="5.47449">
        <ele>296</ele>
        <time>2016-03-09T09:35:08Z</time>
      </trkpt>
      <trkpt lat="47.11617" lon="5.47456">
        <ele>295</ele>
        <time>2016-03-09T09:35:29Z</time>
      </trkpt>
      <trkpt lat="47.11645" lon="5.47469">
        <ele>296</ele>
        <time>2016-03-09T09:36:02Z</time>
      </trkpt>
      <trkpt lat="47.11654" lon="5.47473">
        <ele>296</ele>
        <time>2016-03-09T09:36:11Z</time>
      </trkpt>
      <trkpt lat="47.1168" lon="5.47456">
        <ele>300</ele>
        <time>2016-03-09T09:36:43Z</time>
      </trkpt>
      <trkpt lat="47.11711" lon="5.47424">
        <ele>304</ele>
        <time>2016-03-09T09:37:19Z</time>
      </trkpt>
      <trkpt lat="47.11718" lon="5.47416">
        <ele>304</ele>
        <time>2016-03-09T09:37:27Z</time>
      </trkpt>
      <trkpt lat="47.11725" lon="5.47409">
        <ele>303</ele>
        <time>2016-03-09T09:37:38Z</time>
      </trkpt>
      <trkpt lat="47.11733" lon="5.474">
        <ele>303</ele>
        <time>2016-03-09T09:37:51Z</time>
      </trkpt>
      <trkpt lat="47.11742" lon="5.47395">
        <ele>306</ele>
        <time>2016-03-09T09:38:05Z</time>
      </trkpt>
      <trkpt lat="47.11751" lon="5.47393">
        <ele>307</ele>
        <time>2016-03-09T09:38:16Z</time>
      </trkpt>
      <trkpt lat="47.11769" lon="5.47386">
        <ele>308</ele>
        <time>2016-03-09T09:38:37Z</time>
      </trkpt>
      <trkpt lat="47.11788" lon="5.47383">
        <ele>309</ele>
        <time>2016-03-09T09:38:58Z</time>
      </trkpt>
      <trkpt lat="47.11798" lon="5.47381">
        <ele>312</ele>
        <time>2016-03-09T09:39:07Z</time>
      </trkpt>
      <trkpt lat="47.11822" lon="5.47381">
        <ele>312</ele>
        <time>2016-03-09T09:39:23Z</time>
      </trkpt>
      <trkpt lat="47.11826" lon="5.4738">
        <ele>313</ele>
        <time>2016-03-09T09:39:27Z</time>
      </trkpt>
      <trkpt lat="47.11832" lon="5.47381">
        <ele>313</ele>
        <time>2016-03-09T09:39:31Z</time>
      </trkpt>
      <trkpt lat="47.11836" lon="5.4738">
        <ele>313</ele>
        <time>2016-03-09T09:39:36Z</time>
      </trkpt>
      <trkpt lat="47.11841" lon="5.47377">
        <ele>314</ele>
        <time>2016-03-09T09:39:42Z</time>
      </trkpt>
      <trkpt lat="47.11865" lon="5.47374">
        <ele>313</ele>
        <time>2016-03-09T09:40:04Z</time>
      </trkpt>
      <trkpt lat="47.11875" lon="5.47376">
        <ele>314</ele>
        <time>2016-03-09T09:40:14Z</time>
      </trkpt>
      <trkpt lat="47.11879" lon="5.47376">
        <ele>314</ele>
        <time>2016-03-09T09:40:20Z</time>
      </trkpt>
      <trkpt lat="47.11898" lon="5.47372">
        <ele>314</ele>
        <time>2016-03-09T09:40:41Z</time>
      </trkpt>
      <trkpt lat="47.11924" lon="5.4738">
        <ele>319</ele>
        <time>2016-03-09T09:41:08Z</time>
      </trkpt>
      <trkpt lat="47.11929" lon="5.47378">
        <ele>319</ele>
        <time>2016-03-09T09:41:12Z</time>
      </trkpt>
      <trkpt lat="47.11934" lon="5.47378">
        <ele>319</ele>
        <time>2016-03-09T09:41:18Z</time>
      </trkpt>
      <trkpt lat="47.11948" lon="5.47378">
        <ele>321</ele>
        <time>2016-03-09T09:41:33Z</time>
      </trkpt>
      <trkpt lat="47.11953" lon="5.47377">
        <ele>321</ele>
        <time>2016-03-09T09:41:37Z</time>
      </trkpt>
      <trkpt lat="47.11965" lon="5.47374">
        <ele>320</ele>
        <time>2016-03-09T09:41:54Z</time>
      </trkpt>
      <trkpt lat="47.1197" lon="5.47375">
        <ele>320</ele>
        <time>2016-03-09T09:42:02Z</time>
      </trkpt>
      <trkpt lat="47.11993" lon="5.47374">
        <ele>322</ele>
        <time>2016-03-09T09:42:35Z</time>
      </trkpt>
      <trkpt lat="47.12024" lon="5.47381">
        <ele>328</ele>
        <time>2016-03-09T09:43:06Z</time>
      </trkpt>
      <trkpt lat="47.12029" lon="5.47382">
        <ele>328</ele>
        <time>2016-03-09T09:43:11Z</time>
      </trkpt>
      <trkpt lat="47.12034" lon="5.47382">
        <ele>328</ele>
        <time>2016-03-09T09:43:16Z</time>
      </trkpt>
      <trkpt lat="47.12044" lon="5.47386">
        <ele>328</ele>
        <time>2016-03-09T09:43:26Z</time>
      </trkpt>
      <trkpt lat="47.12049" lon="5.47384">
        <ele>328</ele>
        <time>2016-03-09T09:43:32Z</time>
      </trkpt>
      <trkpt lat="47.12053" lon="5.47385">
        <ele>328</ele>
        <time>2016-03-09T09:43:37Z</time>
      </trkpt>
      <trkpt lat="47.12067" lon="5.47384">
        <ele>329</ele>
        <time>2016-03-09T09:43:54Z</time>
      </trkpt>
      <trkpt lat="47.12072" lon="5.47385">
        <ele>329</ele>
        <time>2016-03-09T09:43:59Z</time>
      </trkpt>
      <trkpt lat="47.12077" lon="5.47388">
        <ele>329</ele>
        <time>2016-03-09T09:44:04Z</time>
      </trkpt>
      <trkpt lat="47.12082" lon="5.47387">
        <ele>330</ele>
        <time>2016-03-09T09:44:09Z</time>
      </trkpt>
      <trkpt lat="47.12086" lon="5.4739">
        <ele>330</ele>
        <time>2016-03-09T09:44:15Z</time>
      </trkpt>
      <trkpt lat="47.12091" lon="5.47393">
        <ele>331</ele>
        <time>2016-03-09T09:44:20Z</time>
      </trkpt>
      <trkpt lat="47.12095" lon="5.47392">
        <ele>331</ele>
        <time>2016-03-09T09:44:24Z</time>
      </trkpt>
      <trkpt lat="47.121" lon="5.47391">
        <ele>331</ele>
        <time>2016-03-09T09:44:29Z</time>
      </trkpt>
      <trkpt lat="47.12105" lon="5.4739">
        <ele>331</ele>
        <time>2016-03-09T09:44:33Z</time>
      </trkpt>
      <trkpt lat="47.12114" lon="5.47387">
        <ele>329</ele>
        <time>2016-03-09T09:44:44Z</time>
      </trkpt>
      <trkpt lat="47.12119" lon="5.47388">
        <ele>329</ele>
        <time>2016-03-09T09:44:49Z</time>
      </trkpt>
      <trkpt lat="47.12147" lon="5.47398">
        <ele>332</ele>
        <time>2016-03-09T09:45:20Z</time>
      </trkpt>
      <trkpt lat="47.12161" lon="5.47398">
        <ele>332</ele>
        <time>2016-03-09T09:45:32Z</time>
      </trkpt>
      <trkpt lat="47.12166" lon="5.47399">
        <ele>333</ele>
        <time>2016-03-09T09:45:36Z</time>
      </trkpt>
      <trkpt lat="47.12171" lon="5.47398">
        <ele>333</ele>
        <time>2016-03-09T09:45:42Z</time>
      </trkpt>
      <trkpt lat="47.1218" lon="5.47398">
        <ele>333</ele>
        <time>2016-03-09T09:45:52Z</time>
      </trkpt>
      <trkpt lat="47.12185" lon="5.47399">
        <ele>334</ele>
        <time>2016-03-09T09:45:57Z</time>
      </trkpt>
      <trkpt lat="47.12194" lon="5.47399">
        <ele>334</ele>
        <time>2016-03-09T09:46:05Z</time>
      </trkpt>
      <trkpt lat="47.12212" lon="5.47412">
        <ele>338</ele>
        <time>2016-03-09T09:46:26Z</time>
      </trkpt>
      <trkpt lat="47.12221" lon="5.47419">
        <ele>338</ele>
        <time>2016-03-09T09:46:40Z</time>
      </trkpt>
      <trkpt lat="47.12252" lon="5.47428">
        <ele>340</ele>
        <time>2016-03-09T09:47:13Z</time>
      </trkpt>
      <trkpt lat="47.12257" lon="5.47429">
        <ele>340</ele>
        <time>2016-03-09T09:47:18Z</time>
      </trkpt>
      <trkpt lat="47.12272" lon="5.47434">
        <ele>340</ele>
        <time>2016-03-09T09:47:33Z</time>
      </trkpt>
      <trkpt lat="47.12299" lon="5.47446">
        <ele>343</ele>
        <time>2016-03-09T09:48:09Z</time>
      </trkpt>
      <trkpt lat="47.12306" lon="5.47445">
        <ele>344</ele>
        <time>2016-03-09T09:48:22Z</time>
      </trkpt>
      <trkpt lat="47.1231" lon="5.47447">
        <ele>344</ele>
        <time>2016-03-09T09:48:28Z</time>
      </trkpt>
      <trkpt lat="47.1231" lon="5.4745">
        <ele>344</ele>
        <time>2016-03-09T09:48:40Z</time>
      </trkpt>
      <trkpt lat="47.12315" lon="5.4745">
        <ele>344</ele>
        <time>2016-03-09T09:49:15Z</time>
      </trkpt>
      <trkpt lat="47.12317" lon="5.47457">
        <ele>343</ele>
        <time>2016-03-09T09:51:26Z</time>
      </trkpt>
      <trkpt lat="47.12319" lon="5.47463">
        <ele>342</ele>
        <time>2016-03-09T09:51:34Z</time>
      </trkpt>
      <trkpt lat="47.12324" lon="5.47476">
        <ele>341</ele>
        <time>2016-03-09T09:51:46Z</time>
      </trkpt>
      <trkpt lat="47.12327" lon="5.47482">
        <ele>342</ele>
        <time>2016-03-09T09:51:52Z</time>
      </trkpt>
      <trkpt lat="47.12328" lon="5.47489">
        <ele>342</ele>
        <time>2016-03-09T09:51:58Z</time>
      </trkpt>
      <trkpt lat="47.12328" lon="5.47496">
        <ele>342</ele>
        <time>2016-03-09T09:52:03Z</time>
      </trkpt>
      <trkpt lat="47.12316" lon="5.47518">
        <ele>336</ele>
        <time>2016-03-09T09:52:33Z</time>
      </trkpt>
      <trkpt lat="47.12304" lon="5.47548">
        <ele>331</ele>
        <time>2016-03-09T09:53:04Z</time>
      </trkpt>
      <trkpt lat="47.12301" lon="5.47554">
        <ele>330</ele>
        <time>2016-03-09T09:53:14Z</time>
      </trkpt>
      <trkpt lat="47.12296" lon="5.47568">
        <ele>330</ele>
        <time>2016-03-09T09:53:33Z</time>
      </trkpt>
      <trkpt lat="47.12292" lon="5.47572">
        <ele>330</ele>
        <time>2016-03-09T09:53:42Z</time>
      </trkpt>
      <trkpt lat="47.12288" lon="5.47573">
        <ele>329</ele>
        <time>2016-03-09T09:53:53Z</time>
      </trkpt>
      <trkpt lat="47.12288" lon="5.47577">
        <ele>328</ele>
        <time>2016-03-09T09:54:03Z</time>
      </trkpt>
      <trkpt lat="47.12285" lon="5.47579">
        <ele>328</ele>
        <time>2016-03-09T09:54:14Z</time>
      </trkpt>
      <trkpt lat="47.12281" lon="5.47581">
        <ele>327</ele>
        <time>2016-03-09T09:54:23Z</time>
      </trkpt>
      <trkpt lat="47.12273" lon="5.47583">
        <ele>328</ele>
        <time>2016-03-09T09:54:39Z</time>
      </trkpt>
      <trkpt lat="47.12269" lon="5.47584">
        <ele>326</ele>
        <time>2016-03-09T09:54:48Z</time>
      </trkpt>
      <trkpt lat="47.12254" lon="5.47596">
        <ele>321</ele>
        <time>2016-03-09T09:55:13Z</time>
      </trkpt>
      <trkpt lat="47.12246" lon="5.47599">
        <ele>321</ele>
        <time>2016-03-09T09:55:27Z</time>
      </trkpt>
      <trkpt lat="47.12237" lon="5.47609">
        <ele>319</ele>
        <time>2016-03-09T09:55:47Z</time>
      </trkpt>
      <trkpt lat="47.12235" lon="5.47622">
        <ele>318</ele>
        <time>2016-03-09T09:56:01Z</time>
      </trkpt>
      <trkpt lat="47.12233" lon="5.47653">
        <ele>315</ele>
        <time>2016-03-09T09:56:51Z</time>
      </trkpt>
      <trkpt lat="47.1223" lon="5.4766">
        <ele>312</ele>
        <time>2016-03-09T09:57:05Z</time>
      </trkpt>
      <trkpt lat="47.12225" lon="5.47659">
        <ele>311</ele>
        <time>2016-03-09T09:57:13Z</time>
      </trkpt>
      <trkpt lat="47.12222" lon="5.47665">
        <ele>310</ele>
        <time>2016-03-09T09:57:21Z</time>
      </trkpt>
      <trkpt lat="47.12218" lon="5.47666">
        <ele>310</ele>
        <time>2016-03-09T09:57:27Z</time>
      </trkpt>
      <trkpt lat="47.12217" lon="5.4767">
        <ele>310</ele>
        <time>2016-03-09T09:57:37Z</time>
      </trkpt>
      <trkpt lat="47.12213" lon="5.47674">
        <ele>310</ele>
        <time>2016-03-09T09:57:45Z</time>
      </trkpt>
      <trkpt lat="47.12209" lon="5.47677">
        <ele>310</ele>
        <time>2016-03-09T09:57:51Z</time>
      </trkpt>
      <trkpt lat="47.12204" lon="5.47681">
        <ele>309</ele>
        <time>2016-03-09T09:57:57Z</time>
      </trkpt>
      <trkpt lat="47.12199" lon="5.47679">
        <ele>308</ele>
        <time>2016-03-09T09:58:02Z</time>
      </trkpt>
      <trkpt lat="47.1219" lon="5.47677">
        <ele>308</ele>
        <time>2016-03-09T09:58:14Z</time>
      </trkpt>
      <trkpt lat="47.12182" lon="5.4768">
        <ele>308</ele>
        <time>2016-03-09T09:58:33Z</time>
      </trkpt>
      <trkpt lat="47.12172" lon="5.4768">
        <ele>308</ele>
        <time>2016-03-09T09:58:42Z</time>
      </trkpt>
      <trkpt lat="47.12154" lon="5.47688">
        <ele>304</ele>
        <time>2016-03-09T09:59:08Z</time>
      </trkpt>
      <trkpt lat="47.12144" lon="5.47686">
        <ele>304</ele>
        <time>2016-03-09T09:59:17Z</time>
      </trkpt>
      <trkpt lat="47.12135" lon="5.47685">
        <ele>302</ele>
        <time>2016-03-09T09:59:28Z</time>
      </trkpt>
      <trkpt lat="47.12126" lon="5.47684">
        <ele>302</ele>
        <time>2016-03-09T09:59:42Z</time>
      </trkpt>
      <trkpt lat="47.12118" lon="5.47691">
        <ele>301</ele>
        <time>2016-03-09T09:59:59Z</time>
      </trkpt>
      <trkpt lat="47.121" lon="5.47691">
        <ele>299</ele>
        <time>2016-03-09T10:00:24Z</time>
      </trkpt>
      <trkpt lat="47.12063" lon="5.47685">
        <ele>291</ele>
        <time>2016-03-09T10:01:01Z</time>
      </trkpt>
      <trkpt lat="47.12044" lon="5.47688">
        <ele>291</ele>
        <time>2016-03-09T10:01:26Z</time>
      </trkpt>
      <trkpt lat="47.12034" lon="5.47689">
        <ele>290</ele>
        <time>2016-03-09T10:01:33Z</time>
      </trkpt>
      <trkpt lat="47.12015" lon="5.47693">
        <ele>286</ele>
        <time>2016-03-09T10:01:51Z</time>
      </trkpt>
      <trkpt lat="47.11974" lon="5.47693">
        <ele>280</ele>
        <time>2016-03-09T10:03:06Z</time>
      </trkpt>
      <trkpt lat="47.11968" lon="5.47703">
        <ele>280</ele>
        <time>2016-03-09T10:03:17Z</time>
      </trkpt>
      <trkpt lat="47.11951" lon="5.47717">
        <ele>277</ele>
        <time>2016-03-09T10:03:33Z</time>
      </trkpt>
      <trkpt lat="47.11946" lon="5.47714">
        <ele>274</ele>
        <time>2016-03-09T10:03:46Z</time>
      </trkpt>
      <trkpt lat="47.11935" lon="5.4772">
        <ele>274</ele>
        <time>2016-03-09T10:04:57Z</time>
      </trkpt>
      <trkpt lat="47.11916" lon="5.47745">
        <ele>270</ele>
        <time>2016-03-09T10:05:15Z</time>
      </trkpt>
      <trkpt lat="47.11905" lon="5.4777">
        <ele>266</ele>
        <time>2016-03-09T10:05:32Z</time>
      </trkpt>
      <trkpt lat="47.11898" lon="5.47778">
        <ele>265</ele>
        <time>2016-03-09T10:05:40Z</time>
      </trkpt>
      <trkpt lat="47.11894" lon="5.47784">
        <ele>265</ele>
        <time>2016-03-09T10:05:45Z</time>
      </trkpt>
      <trkpt lat="47.11891" lon="5.47789">
        <ele>265</ele>
        <time>2016-03-09T10:05:49Z</time>
      </trkpt>
      <trkpt lat="47.11875" lon="5.47806">
        <ele>265</ele>
        <time>2016-03-09T10:06:07Z</time>
      </trkpt>
      <trkpt lat="47.11871" lon="5.47811">
        <ele>265</ele>
        <time>2016-03-09T10:06:12Z</time>
      </trkpt>
      <trkpt lat="47.11863" lon="5.47818">
        <ele>265</ele>
        <time>2016-03-09T10:06:23Z</time>
      </trkpt>
      <trkpt lat="47.1186" lon="5.4782">
        <ele>266</ele>
        <time>2016-03-09T10:06:34Z</time>
      </trkpt>
      <trkpt lat="47.11856" lon="5.47822">
        <ele>266</ele>
        <time>2016-03-09T10:07:02Z</time>
      </trkpt>
      <trkpt lat="47.11846" lon="5.47824">
        <ele>266</ele>
        <time>2016-03-09T10:07:12Z</time>
      </trkpt>
      <trkpt lat="47.11841" lon="5.47825">
        <ele>267</ele>
        <time>2016-03-09T10:07:17Z</time>
      </trkpt>
      <trkpt lat="47.11836" lon="5.47827">
        <ele>268</ele>
        <time>2016-03-09T10:07:22Z</time>
      </trkpt>
      <trkpt lat="47.11808" lon="5.47839">
        <ele>268</ele>
        <time>2016-03-09T10:07:47Z</time>
      </trkpt>
      <trkpt lat="47.11794" lon="5.47847">
        <ele>269</ele>
        <time>2016-03-09T10:07:59Z</time>
      </trkpt>
      <trkpt lat="47.11765" lon="5.47872">
        <ele>269</ele>
        <time>2016-03-09T10:08:30Z</time>
      </trkpt>
      <trkpt lat="47.11756" lon="5.47879">
        <ele>270</ele>
        <time>2016-03-09T10:08:41Z</time>
      </trkpt>
      <trkpt lat="47.11751" lon="5.47881">
        <ele>270</ele>
        <time>2016-03-09T10:08:45Z</time>
      </trkpt>
      <trkpt lat="47.11727" lon="5.47894">
        <ele>269</ele>
        <time>2016-03-09T10:09:13Z</time>
      </trkpt>
      <trkpt lat="47.11718" lon="5.4789">
        <ele>271</ele>
        <time>2016-03-09T10:09:31Z</time>
      </trkpt>
      <trkpt lat="47.11715" lon="5.47895">
        <ele>272</ele>
        <time>2016-03-09T10:09:46Z</time>
      </trkpt>
      <trkpt lat="47.11706" lon="5.47892">
        <ele>272</ele>
        <time>2016-03-09T10:10:05Z</time>
      </trkpt>
      <trkpt lat="47.11697" lon="5.47893">
        <ele>270</ele>
        <time>2016-03-09T10:10:19Z</time>
      </trkpt>
      <trkpt lat="47.11687" lon="5.47891">
        <ele>270</ele>
        <time>2016-03-09T10:10:28Z</time>
      </trkpt>
      <trkpt lat="47.11664" lon="5.47883">
        <ele>267</ele>
        <time>2016-03-09T10:10:50Z</time>
      </trkpt>
      <trkpt lat="47.11659" lon="5.47881">
        <ele>267</ele>
        <time>2016-03-09T10:10:54Z</time>
      </trkpt>
      <trkpt lat="47.11634" lon="5.47876">
        <ele>268</ele>
        <time>2016-03-09T10:11:14Z</time>
      </trkpt>
      <trkpt lat="47.11629" lon="5.47877">
        <ele>268</ele>
        <time>2016-03-09T10:11:18Z</time>
      </trkpt>
      <trkpt lat="47.11587" lon="5.47894">
        <ele>269</ele>
        <time>2016-03-09T10:11:50Z</time>
      </trkpt>
      <trkpt lat="47.11583" lon="5.47896">
        <ele>269</ele>
        <time>2016-03-09T10:11:55Z</time>
      </trkpt>
      <trkpt lat="47.11577" lon="5.47897">
        <ele>269</ele>
        <time>2016-03-09T10:11:59Z</time>
      </trkpt>
      <trkpt lat="47.11558" lon="5.47907">
        <ele>267</ele>
        <time>2016-03-09T10:12:15Z</time>
      </trkpt>
      <trkpt lat="47.11553" lon="5.4791">
        <ele>267</ele>
        <time>2016-03-09T10:12:19Z</time>
      </trkpt>
      <trkpt lat="47.11547" lon="5.47914">
        <ele>269</ele>
        <time>2016-03-09T10:12:23Z</time>
      </trkpt>
      <trkpt lat="47.11542" lon="5.47916">
        <ele>269</ele>
        <time>2016-03-09T10:12:27Z</time>
      </trkpt>
      <trkpt lat="47.11533" lon="5.4792">
        <ele>269</ele>
        <time>2016-03-09T10:12:38Z</time>
      </trkpt>
      <trkpt lat="47.11529" lon="5.47925">
        <ele>269</ele>
        <time>2016-03-09T10:12:44Z</time>
      </trkpt>
      <trkpt lat="47.1149" lon="5.47943">
        <ele>269</ele>
        <time>2016-03-09T10:13:16Z</time>
      </trkpt>
      <trkpt lat="47.11474" lon="5.4795">
        <ele>270</ele>
        <time>2016-03-09T10:13:28Z</time>
      </trkpt>
      <trkpt lat="47.1147" lon="5.47954">
        <ele>270</ele>
        <time>2016-03-09T10:13:32Z</time>
      </trkpt>
      <trkpt lat="47.11431" lon="5.47975">
        <ele>270</ele>
        <time>2016-03-09T10:14:04Z</time>
      </trkpt>
      <trkpt lat="47.11416" lon="5.4798">
        <ele>270</ele>
        <time>2016-03-09T10:14:16Z</time>
      </trkpt>
      <trkpt lat="47.11411" lon="5.47983">
        <ele>271</ele>
        <time>2016-03-09T10:14:20Z</time>
      </trkpt>
      <trkpt lat="47.11397" lon="5.47988">
        <ele>270</ele>
        <time>2016-03-09T10:14:31Z</time>
      </trkpt>
      <trkpt lat="47.11372" lon="5.47994">
        <ele>272</ele>
        <time>2016-03-09T10:14:55Z</time>
      </trkpt>
      <trkpt lat="47.11353" lon="5.48002">
        <ele>272</ele>
        <time>2016-03-09T10:15:07Z</time>
      </trkpt>
      <trkpt lat="47.11314" lon="5.48022">
        <ele>274</ele>
        <time>2016-03-09T10:15:38Z</time>
      </trkpt>
      <trkpt lat="47.11309" lon="5.48023">
        <ele>275</ele>
        <time>2016-03-09T10:15:46Z</time>
      </trkpt>
      <trkpt lat="47.11294" lon="5.48025">
        <ele>275</ele>
        <time>2016-03-09T10:15:58Z</time>
      </trkpt>
      <trkpt lat="47.11269" lon="5.48022">
        <ele>278</ele>
        <time>2016-03-09T10:16:18Z</time>
      </trkpt>
      <trkpt lat="47.1125" lon="5.48017">
        <ele>277</ele>
        <time>2016-03-09T10:16:34Z</time>
      </trkpt>
      <trkpt lat="47.11239" lon="5.48015">
        <ele>277</ele>
        <time>2016-03-09T10:16:42Z</time>
      </trkpt>
      <trkpt lat="47.11229" lon="5.48013">
        <ele>277</ele>
        <time>2016-03-09T10:16:50Z</time>
      </trkpt>
      <trkpt lat="47.11219" lon="5.48013">
        <ele>278</ele>
        <time>2016-03-09T10:16:58Z</time>
      </trkpt>
      <trkpt lat="47.11192" lon="5.48013">
        <ele>278</ele>
        <time>2016-03-09T10:17:18Z</time>
      </trkpt>
      <trkpt lat="47.11174" lon="5.48026">
        <ele>277</ele>
        <time>2016-03-09T10:17:34Z</time>
      </trkpt>
      <trkpt lat="47.11165" lon="5.48037">
        <ele>277</ele>
        <time>2016-03-09T10:17:49Z</time>
      </trkpt>
      <trkpt lat="47.11161" lon="5.48042">
        <ele>277</ele>
        <time>2016-03-09T10:17:54Z</time>
      </trkpt>
      <trkpt lat="47.11153" lon="5.48051">
        <ele>277</ele>
        <time>2016-03-09T10:18:04Z</time>
      </trkpt>
      <trkpt lat="47.11121" lon="5.48067">
        <ele>278</ele>
        <time>2016-03-09T10:18:36Z</time>
      </trkpt>
      <trkpt lat="47.11105" lon="5.4807">
        <ele>280</ele>
        <time>2016-03-09T10:18:50Z</time>
      </trkpt>
      <trkpt lat="47.11096" lon="5.48075">
        <ele>280</ele>
        <time>2016-03-09T10:18:58Z</time>
      </trkpt>
      <trkpt lat="47.11091" lon="5.48077">
        <ele>279</ele>
        <time>2016-03-09T10:19:02Z</time>
      </trkpt>
      <trkpt lat="47.11086" lon="5.48077">
        <ele>280</ele>
        <time>2016-03-09T10:19:06Z</time>
      </trkpt>
      <trkpt lat="47.11081" lon="5.48079">
        <ele>279</ele>
        <time>2016-03-09T10:19:11Z</time>
      </trkpt>
      <trkpt lat="47.11052" lon="5.48093">
        <ele>278</ele>
        <time>2016-03-09T10:19:37Z</time>
      </trkpt>
      <trkpt lat="47.11029" lon="5.48109">
        <ele>276</ele>
        <time>2016-03-09T10:20:01Z</time>
      </trkpt>
      <trkpt lat="47.11012" lon="5.48145">
        <ele>278</ele>
        <time>2016-03-09T10:20:25Z</time>
      </trkpt>
      <trkpt lat="47.1101" lon="5.48176">
        <ele>280</ele>
        <time>2016-03-09T10:20:45Z</time>
      </trkpt>
      <trkpt lat="47.11006" lon="5.48189">
        <ele>279</ele>
        <time>2016-03-09T10:20:53Z</time>
      </trkpt>
      <trkpt lat="47.1099" lon="5.48245">
        <ele>281</ele>
        <time>2016-03-09T10:21:26Z</time>
      </trkpt>
      <trkpt lat="47.10988" lon="5.48252">
        <ele>281</ele>
        <time>2016-03-09T10:21:30Z</time>
      </trkpt>
      <trkpt lat="47.10983" lon="5.48265">
        <ele>280</ele>
        <time>2016-03-09T10:21:38Z</time>
      </trkpt>
      <trkpt lat="47.10983" lon="5.48272">
        <ele>280</ele>
        <time>2016-03-09T10:21:42Z</time>
      </trkpt>
      <trkpt lat="47.10982" lon="5.48279">
        <ele>280</ele>
        <time>2016-03-09T10:21:47Z</time>
      </trkpt>
      <trkpt lat="47.10986" lon="5.48283">
        <ele>279</ele>
        <time>2016-03-09T10:22:33Z</time>
      </trkpt>
      <trkpt lat="47.11001" lon="5.48302">
        <ele>281</ele>
        <time>2016-03-09T10:22:49Z</time>
      </trkpt>
      <trkpt lat="47.11003" lon="5.48308">
        <ele>283</ele>
        <time>2016-03-09T10:22:54Z</time>
      </trkpt>
      <trkpt lat="47.11023" lon="5.48321">
        <ele>287</ele>
        <time>2016-03-09T10:23:11Z</time>
      </trkpt>
      <trkpt lat="47.11027" lon="5.48325">
        <ele>287</ele>
        <time>2016-03-09T10:23:14Z</time>
      </trkpt>
      <trkpt lat="47.11032" lon="5.48328">
        <ele>287</ele>
        <time>2016-03-09T10:23:18Z</time>
      </trkpt>
      <trkpt lat="47.1104" lon="5.48335">
        <ele>288</ele>
        <time>2016-03-09T10:23:26Z</time>
      </trkpt>
      <trkpt lat="47.11046" lon="5.48338">
        <ele>288</ele>
        <time>2016-03-09T10:23:31Z</time>
      </trkpt>
      <trkpt lat="47.11051" lon="5.48338">
        <ele>287</ele>
        <time>2016-03-09T10:23:35Z</time>
      </trkpt>
      <trkpt lat="47.1106" lon="5.48345">
        <ele>287</ele>
        <time>2016-03-09T10:23:44Z</time>
      </trkpt>
      <trkpt lat="47.11062" lon="5.48351">
        <ele>288</ele>
        <time>2016-03-09T10:23:51Z</time>
      </trkpt>
      <trkpt lat="47.11066" lon="5.48356">
        <ele>288</ele>
        <time>2016-03-09T10:23:57Z</time>
      </trkpt>
      <trkpt lat="47.11069" lon="5.48361">
        <ele>288</ele>
        <time>2016-03-09T10:24:02Z</time>
      </trkpt>
      <trkpt lat="47.11075" lon="5.4836">
        <ele>287</ele>
        <time>2016-03-09T10:24:06Z</time>
      </trkpt>
      <trkpt lat="47.1108" lon="5.48356">
        <ele>287</ele>
        <time>2016-03-09T10:24:10Z</time>
      </trkpt>
      <trkpt lat="47.1109" lon="5.4835">
        <ele>287</ele>
        <time>2016-03-09T10:24:18Z</time>
      </trkpt>
      <trkpt lat="47.11094" lon="5.48348">
        <ele>287</ele>
        <time>2016-03-09T10:24:24Z</time>
      </trkpt>
      <trkpt lat="47.11095" lon="5.48351">
        <ele>287</ele>
        <time>2016-03-09T10:24:36Z</time>
      </trkpt>
      <trkpt lat="47.1109" lon="5.48364">
        <ele>287</ele>
        <time>2016-03-09T10:24:51Z</time>
      </trkpt>
      <trkpt lat="47.11088" lon="5.48371">
        <ele>288</ele>
        <time>2016-03-09T10:24:55Z</time>
      </trkpt>
      <trkpt lat="47.11083" lon="5.48385">
        <ele>288</ele>
        <time>2016-03-09T10:25:03Z</time>
      </trkpt>
      <trkpt lat="47.11087" lon="5.4843">
        <ele>290</ele>
        <time>2016-03-09T10:25:25Z</time>
      </trkpt>
      <trkpt lat="47.11113" lon="5.48472">
        <ele>292</ele>
        <time>2016-03-09T10:25:57Z</time>
      </trkpt>
      <trkpt lat="47.11122" lon="5.48481">
        <ele>294</ele>
        <time>2016-03-09T10:26:07Z</time>
      </trkpt>
      <trkpt lat="47.11126" lon="5.48486">
        <ele>294</ele>
        <time>2016-03-09T10:26:12Z</time>
      </trkpt>
      <trkpt lat="47.11134" lon="5.48496">
        <ele>295</ele>
        <time>2016-03-09T10:26:24Z</time>
      </trkpt>
      <trkpt lat="47.11138" lon="5.48499">
        <ele>294</ele>
        <time>2016-03-09T10:26:33Z</time>
      </trkpt>
      <trkpt lat="47.11147" lon="5.48507">
        <ele>295</ele>
        <time>2016-03-09T10:26:55Z</time>
      </trkpt>
      <trkpt lat="47.11157" lon="5.48523">
        <ele>295</ele>
        <time>2016-03-09T10:27:13Z</time>
      </trkpt>
      <trkpt lat="47.11164" lon="5.48533">
        <ele>296</ele>
        <time>2016-03-09T10:27:20Z</time>
      </trkpt>
      <trkpt lat="47.11168" lon="5.48538">
        <ele>296</ele>
        <time>2016-03-09T10:27:23Z</time>
      </trkpt>
      <trkpt lat="47.11172" lon="5.48543">
        <ele>296</ele>
        <time>2016-03-09T10:27:29Z</time>
      </trkpt>
      <trkpt lat="47.11182" lon="5.48557">
        <ele>296</ele>
        <time>2016-03-09T10:27:42Z</time>
      </trkpt>
      <trkpt lat="47.1119" lon="5.48565">
        <ele>296</ele>
        <time>2016-03-09T10:27:50Z</time>
      </trkpt>
      <trkpt lat="47.11208" lon="5.48597">
        <ele>296</ele>
        <time>2016-03-09T10:28:18Z</time>
      </trkpt>
      <trkpt lat="47.11212" lon="5.48601">
        <ele>295</ele>
        <time>2016-03-09T10:28:23Z</time>
      </trkpt>
      <trkpt lat="47.11226" lon="5.48623">
        <ele>295</ele>
        <time>2016-03-09T10:28:45Z</time>
      </trkpt>
      <trkpt lat="47.11234" lon="5.48631">
        <ele>295</ele>
        <time>2016-03-09T10:28:55Z</time>
      </trkpt>
      <trkpt lat="47.11256" lon="5.48659">
        <ele>293</ele>
        <time>2016-03-09T10:29:23Z</time>
      </trkpt>
      <trkpt lat="47.11271" lon="5.48676">
        <ele>294</ele>
        <time>2016-03-09T10:29:43Z</time>
      </trkpt>
      <trkpt lat="47.11287" lon="5.48706">
        <ele>297</ele>
        <time>2016-03-09T10:30:08Z</time>
      </trkpt>
      <trkpt lat="47.1129" lon="5.48712">
        <ele>297</ele>
        <time>2016-03-09T10:30:13Z</time>
      </trkpt>
      <trkpt lat="47.11292" lon="5.48718">
        <ele>297</ele>
        <time>2016-03-09T10:30:18Z</time>
      </trkpt>
      <trkpt lat="47.113" lon="5.48738">
        <ele>297</ele>
        <time>2016-03-09T10:30:32Z</time>
      </trkpt>
      <trkpt lat="47.11304" lon="5.48743">
        <ele>298</ele>
        <time>2016-03-09T10:30:37Z</time>
      </trkpt>
      <trkpt lat="47.11308" lon="5.48748">
        <ele>298</ele>
        <time>2016-03-09T10:30:42Z</time>
      </trkpt>
      <trkpt lat="47.11316" lon="5.48757">
        <ele>298</ele>
        <time>2016-03-09T10:30:52Z</time>
      </trkpt>
      <trkpt lat="47.11319" lon="5.48763">
        <ele>298</ele>
        <time>2016-03-09T10:30:56Z</time>
      </trkpt>
      <trkpt lat="47.11333" lon="5.48793">
        <ele>299</ele>
        <time>2016-03-09T10:31:25Z</time>
      </trkpt>
      <trkpt lat="47.11333" lon="5.488">
        <ele>299</ele>
        <time>2016-03-09T10:31:32Z</time>
      </trkpt>
      <trkpt lat="47.11336" lon="5.48822">
        <ele>295</ele>
        <time>2016-03-09T10:31:54Z</time>
      </trkpt>
      <trkpt lat="47.11332" lon="5.48836">
        <ele>293</ele>
        <time>2016-03-09T10:32:07Z</time>
      </trkpt>
      <trkpt lat="47.11332" lon="5.48843">
        <ele>293</ele>
        <time>2016-03-09T10:32:12Z</time>
      </trkpt>
      <trkpt lat="47.11331" lon="5.48866">
        <ele>292</ele>
        <time>2016-03-09T10:32:28Z</time>
      </trkpt>
      <trkpt lat="47.11334" lon="5.48887">
        <ele>289</ele>
        <time>2016-03-09T10:32:47Z</time>
      </trkpt>
      <trkpt lat="47.11333" lon="5.48894">
        <ele>289</ele>
        <time>2016-03-09T10:32:52Z</time>
      </trkpt>
      <trkpt lat="47.11333" lon="5.48909">
        <ele>289</ele>
        <time>2016-03-09T10:33:02Z</time>
      </trkpt>
      <trkpt lat="47.11333" lon="5.4893">
        <ele>288</ele>
        <time>2016-03-09T10:33:20Z</time>
      </trkpt>
      <trkpt lat="47.11335" lon="5.48936">
        <ele>287</ele>
        <time>2016-03-09T10:33:26Z</time>
      </trkpt>
      <trkpt lat="47.11336" lon="5.48943">
        <ele>286</ele>
        <time>2016-03-09T10:33:31Z</time>
      </trkpt>
      <trkpt lat="47.11336" lon="5.4895">
        <ele>286</ele>
        <time>2016-03-09T10:33:37Z</time>
      </trkpt>
      <trkpt lat="47.11331" lon="5.48963">
        <ele>285</ele>
        <time>2016-03-09T10:33:50Z</time>
      </trkpt>
      <trkpt lat="47.11329" lon="5.4897">
        <ele>283</ele>
        <time>2016-03-09T10:33:58Z</time>
      </trkpt>
      <trkpt lat="47.1132" lon="5.48992">
        <ele>279</ele>
        <time>2016-03-09T10:35:43Z</time>
      </trkpt>
      <trkpt lat="47.11321" lon="5.49003">
        <ele>282</ele>
        <time>2016-03-09T10:36:01Z</time>
      </trkpt>
      <trkpt lat="47.11336" lon="5.49032">
        <ele>287</ele>
        <time>2016-03-09T10:36:27Z</time>
      </trkpt>
      <trkpt lat="47.11339" lon="5.49039">
        <ele>287</ele>
        <time>2016-03-09T10:36:32Z</time>
      </trkpt>
      <trkpt lat="47.11361" lon="5.49059">
        <ele>285</ele>
        <time>2016-03-09T10:36:56Z</time>
      </trkpt>
      <trkpt lat="47.11365" lon="5.49063">
        <ele>285</ele>
        <time>2016-03-09T10:37:00Z</time>
      </trkpt>
      <trkpt lat="47.11369" lon="5.49066">
        <ele>286</ele>
        <time>2016-03-09T10:37:05Z</time>
      </trkpt>
      <trkpt lat="47.11381" lon="5.49077">
        <ele>285</ele>
        <time>2016-03-09T10:37:19Z</time>
      </trkpt>
      <trkpt lat="47.11386" lon="5.49073">
        <ele>281</ele>
        <time>2016-03-09T10:37:29Z</time>
      </trkpt>
      <trkpt lat="47.11391" lon="5.49072">
        <ele>280</ele>
        <time>2016-03-09T10:37:33Z</time>
      </trkpt>
      <trkpt lat="47.11393" lon="5.49077">
        <ele>279</ele>
        <time>2016-03-09T10:37:37Z</time>
      </trkpt>
      <trkpt lat="47.11393" lon="5.49084">
        <ele>278</ele>
        <time>2016-03-09T10:37:42Z</time>
      </trkpt>
      <trkpt lat="47.11395" lon="5.49088">
        <ele>277</ele>
        <time>2016-03-09T10:37:53Z</time>
      </trkpt>
      <trkpt lat="47.11399" lon="5.49092">
        <ele>277</ele>
        <time>2016-03-09T10:37:57Z</time>
      </trkpt>
      <trkpt lat="47.11404" lon="5.49114">
        <ele>276</ele>
        <time>2016-03-09T10:38:09Z</time>
      </trkpt>
      <trkpt lat="47.11404" lon="5.49121">
        <ele>276</ele>
        <time>2016-03-09T10:38:13Z</time>
      </trkpt>
      <trkpt lat="47.114" lon="5.49134">
        <ele>276</ele>
        <time>2016-03-09T10:38:23Z</time>
      </trkpt>
      <trkpt lat="47.11396" lon="5.49138">
        <ele>276</ele>
        <time>2016-03-09T10:38:28Z</time>
      </trkpt>
      <trkpt lat="47.11381" lon="5.49157">
        <ele>270</ele>
        <time>2016-03-09T10:38:47Z</time>
      </trkpt>
      <trkpt lat="47.11378" lon="5.49162">
        <ele>270</ele>
        <time>2016-03-09T10:38:51Z</time>
      </trkpt>
      <trkpt lat="47.1137" lon="5.4918">
        <ele>268</ele>
        <time>2016-03-09T10:39:03Z</time>
      </trkpt>
      <trkpt lat="47.11367" lon="5.49202">
        <ele>268</ele>
        <time>2016-03-09T10:39:16Z</time>
      </trkpt>
      <trkpt lat="47.11374" lon="5.49251">
        <ele>269</ele>
        <time>2016-03-09T10:39:45Z</time>
      </trkpt>
      <trkpt lat="47.1138" lon="5.49264">
        <ele>271</ele>
        <time>2016-03-09T10:39:54Z</time>
      </trkpt>
      <trkpt lat="47.11384" lon="5.49269">
        <ele>271</ele>
        <time>2016-03-09T10:39:58Z</time>
      </trkpt>
      <trkpt lat="47.11386" lon="5.49276">
        <ele>272</ele>
        <time>2016-03-09T10:40:03Z</time>
      </trkpt>
      <trkpt lat="47.11385" lon="5.49284">
        <ele>271</ele>
        <time>2016-03-09T10:40:11Z</time>
      </trkpt>
      <trkpt lat="47.11389" lon="5.4929">
        <ele>270</ele>
        <time>2016-03-09T10:40:17Z</time>
      </trkpt>
      <trkpt lat="47.11393" lon="5.49295">
        <ele>269</ele>
        <time>2016-03-09T10:40:21Z</time>
      </trkpt>
      <trkpt lat="47.11393" lon="5.49302">
        <ele>268</ele>
        <time>2016-03-09T10:40:27Z</time>
      </trkpt>
      <trkpt lat="47.11393" lon="5.4931">
        <ele>267</ele>
        <time>2016-03-09T10:40:32Z</time>
      </trkpt>
      <trkpt lat="47.11393" lon="5.4935">
        <ele>266</ele>
        <time>2016-03-09T10:40:56Z</time>
      </trkpt>
      <trkpt lat="47.1139" lon="5.49372">
        <ele>266</ele>
        <time>2016-03-09T10:41:08Z</time>
      </trkpt>
      <trkpt lat="47.11383" lon="5.49393">
        <ele>266</ele>
        <time>2016-03-09T10:41:19Z</time>
      </trkpt>
      <trkpt lat="47.11383" lon="5.49401">
        <ele>265</ele>
        <time>2016-03-09T10:41:23Z</time>
      </trkpt>
      <trkpt lat="47.11382" lon="5.49424">
        <ele>265</ele>
        <time>2016-03-09T10:41:34Z</time>
      </trkpt>
      <trkpt lat="47.1138" lon="5.49475">
        <ele>263</ele>
        <time>2016-03-09T10:42:05Z</time>
      </trkpt>
      <trkpt lat="47.1138" lon="5.49482">
        <ele>262</ele>
        <time>2016-03-09T10:42:12Z</time>
      </trkpt>
      <trkpt lat="47.1138" lon="5.49491">
        <ele>262</ele>
        <time>2016-03-09T10:42:17Z</time>
      </trkpt>
      <trkpt lat="47.11381" lon="5.49497">
        <ele>262</ele>
        <time>2016-03-09T10:42:22Z</time>
      </trkpt>
      <trkpt lat="47.11385" lon="5.49502">
        <ele>261</ele>
        <time>2016-03-09T10:42:38Z</time>
      </trkpt>
      <trkpt lat="47.11395" lon="5.4952">
        <ele>257</ele>
        <time>2016-03-09T10:42:51Z</time>
      </trkpt>
      <trkpt lat="47.11397" lon="5.49527">
        <ele>257</ele>
        <time>2016-03-09T10:42:55Z</time>
      </trkpt>
      <trkpt lat="47.11402" lon="5.49549">
        <ele>256</ele>
        <time>2016-03-09T10:43:07Z</time>
      </trkpt>
      <trkpt lat="47.11404" lon="5.49562">
        <ele>256</ele>
        <time>2016-03-09T10:43:15Z</time>
      </trkpt>
      <trkpt lat="47.11409" lon="5.4959">
        <ele>256</ele>
        <time>2016-03-09T10:43:31Z</time>
      </trkpt>
      <trkpt lat="47.11413" lon="5.49604">
        <ele>256</ele>
        <time>2016-03-09T10:43:40Z</time>
      </trkpt>
      <trkpt lat="47.11415" lon="5.49611">
        <ele>257</ele>
        <time>2016-03-09T10:43:44Z</time>
      </trkpt>
      <trkpt lat="47.11444" lon="5.49644">
        <ele>258</ele>
        <time>2016-03-09T10:44:15Z</time>
      </trkpt>
      <trkpt lat="47.11449" lon="5.49649">
        <ele>258</ele>
        <time>2016-03-09T10:44:19Z</time>
      </trkpt>
      <trkpt lat="47.11458" lon="5.49657">
        <ele>259</ele>
        <time>2016-03-09T10:44:28Z</time>
      </trkpt>
      <trkpt lat="47.11463" lon="5.4966">
        <ele>258</ele>
        <time>2016-03-09T10:44:34Z</time>
      </trkpt>
      <trkpt lat="47.11465" lon="5.49666">
        <ele>258</ele>
        <time>2016-03-09T10:44:38Z</time>
      </trkpt>
      <trkpt lat="47.11465" lon="5.49688">
        <ele>257</ele>
        <time>2016-03-09T10:44:50Z</time>
      </trkpt>
      <trkpt lat="47.11458" lon="5.49709">
        <ele>255</ele>
        <time>2016-03-09T10:45:04Z</time>
      </trkpt>
      <trkpt lat="47.11448" lon="5.49738">
        <ele>254</ele>
        <time>2016-03-09T10:45:20Z</time>
      </trkpt>
      <trkpt lat="47.11441" lon="5.49758">
        <ele>252</ele>
        <time>2016-03-09T10:45:33Z</time>
      </trkpt>
      <trkpt lat="47.11438" lon="5.49764">
        <ele>252</ele>
        <time>2016-03-09T10:45:37Z</time>
      </trkpt>
      <trkpt lat="47.11419" lon="5.49817">
        <ele>254</ele>
        <time>2016-03-09T10:46:09Z</time>
      </trkpt>
      <trkpt lat="47.11412" lon="5.49843">
        <ele>253</ele>
        <time>2016-03-09T10:46:25Z</time>
      </trkpt>
      <trkpt lat="47.11404" lon="5.49861">
        <ele>254</ele>
        <time>2016-03-09T10:46:39Z</time>
      </trkpt>
      <trkpt lat="47.11401" lon="5.49865">
        <ele>253</ele>
        <time>2016-03-09T10:46:45Z</time>
      </trkpt>
      <trkpt lat="47.11395" lon="5.49865">
        <ele>253</ele>
        <time>2016-03-09T10:46:49Z</time>
      </trkpt>
      <trkpt lat="47.11364" lon="5.49872">
        <ele>256</ele>
        <time>2016-03-09T10:47:12Z</time>
      </trkpt>
      <trkpt lat="47.11333" lon="5.49896">
        <ele>254</ele>
        <time>2016-03-09T10:47:43Z</time>
      </trkpt>
      <trkpt lat="47.11324" lon="5.49905">
        <ele>253</ele>
        <time>2016-03-09T10:48:14Z</time>
      </trkpt>
    </trkseg>
  </trk>
</gpx>